PWSweather.com
Personal Weather Stations
Station Observations
DL5ARK
SonnebergDE

SonnebergDE

Lat: 50.34904861, Lon: 11.18112087

Elevation: 1214

Station Type: Selfmade

http://www.sumbarg.de

High Low Average
Temperature 38.4°F3.6°C 35.6°F2.0°C 36.9°F2.7°C
Dew Point 40.5°F4.7°C 38.2°F3.4°C 39.7°F4.3°C
Winds 8.8 mph 14.2 kmh Calm Calm 3.0 mph WNW4.8 kmh WNW
Wind Gusts 8.8 mph14.2 kmh -- 3.0 mph4.8 kmh
Humidity 92% 84% 88%
Pressure 30.40 in1029.5 mb 30.26 in1024.7 mb -
Precipitation 0.00 in0.0 mm - -
Hour Temp Dew Point Humidity Winds Wind Gusts Pressure Precip Precip Rate Daily Precip Total
12:00 AM 36.2°F2.3°C 40.1°F4.5°C 92% 2.4 mph W3.9 kmh W 2.4 mph3.9 kmh 30.39 in1029.1 mb 0.00 in0.0 mm 0.00 in0.0 mm 0.00 in0.0 mm
12:03 AM 36.3°F2.4°C 39.9°F4.4°C 92% Calm Calm -- 30.39 in1029.1 mb 0.00 in0.0 mm 0.00 in0.0 mm 0.00 in0.0 mm
12:06 AM 36.2°F2.3°C 39.9°F4.4°C 92% 2.8 mph W4.5 kmh W 2.8 mph4.5 kmh 30.39 in1029.1 mb 0.00 in0.0 mm 0.00 in0.0 mm 0.00 in0.0 mm
12:09 AM 36.3°F2.4°C 39.7°F4.3°C 90% 1.2 mph NW1.9 kmh NW 1.2 mph1.9 kmh 30.39 in1029.1 mb 0.00 in0.0 mm 0.00 in0.0 mm 0.00 in0.0 mm
12:12 AM 36.3°F2.4°C 39.9°F4.4°C 92% 2.0 mph W3.2 kmh W 2.0 mph3.2 kmh 30.39 in1029.1 mb 0.00 in0.0 mm 0.00 in0.0 mm 0.00 in0.0 mm
12:15 AM 36.3°F2.4°C 39.8°F4.3°C 91% 0.8 mph NW1.3 kmh NW 0.8 mph1.3 kmh 30.40 in1029.5 mb 0.00 in0.0 mm 0.00 in0.0 mm 0.00 in0.0 mm
12:18 AM 36.3°F2.4°C 39.9°F4.4°C 91% Calm Calm -- 30.39 in1029.1 mb 0.00 in0.0 mm 0.00 in0.0 mm 0.00 in0.0 mm
12:21 AM 36.2°F2.3°C 40.0°F4.4°C 91% 2.0 mph W3.2 kmh W 2.0 mph3.2 kmh 30.39 in1029.1 mb 0.00 in0.0 mm 0.00 in0.0 mm 0.00 in0.0 mm
12:24 AM 36.3°F2.4°C 39.7°F4.3°C 91% 5.3 mph WNW8.5 kmh WNW 5.3 mph8.5 kmh 30.39 in1029.1 mb 0.00 in0.0 mm 0.00 in0.0 mm 0.00 in0.0 mm
12:27 AM 36.2°F2.3°C 40.0°F4.4°C 91% 1.6 mph NNW2.6 kmh NNW 1.6 mph2.6 kmh 30.39 in1029.1 mb 0.00 in0.0 mm 0.00 in0.0 mm 0.00 in0.0 mm
12:30 AM 36.2°F2.3°C 40.1°F4.5°C 91% 0.8 mph WNW1.3 kmh WNW 0.8 mph1.3 kmh 30.39 in1029.1 mb 0.00 in0.0 mm 0.00 in0.0 mm 0.00 in0.0 mm
12:33 AM 36.1°F2.3°C 39.9°F4.4°C 91% 0.8 mph W1.3 kmh W 0.8 mph1.3 kmh 30.39 in1029.1 mb 0.00 in0.0 mm 0.00 in0.0 mm 0.00 in0.0 mm
12:36 AM 36.2°F2.3°C 40.0°F4.4°C 91% 1.2 mph NW1.9 kmh NW 1.2 mph1.9 kmh 30.40 in1029.5 mb 0.00 in0.0 mm 0.00 in0.0 mm 0.00 in0.0 mm
12:39 AM 36.2°F2.3°C 40.1°F4.5°C 92% 2.8 mph NW4.5 kmh NW 2.9 mph4.7 kmh 30.40 in1029.5 mb 0.00 in0.0 mm 0.00 in0.0 mm 0.00 in0.0 mm
12:42 AM 36.2°F2.3°C 39.9°F4.4°C 91% 2.0 mph W3.2 kmh W 2.0 mph3.2 kmh 30.39 in1029.1 mb 0.00 in0.0 mm 0.00 in0.0 mm 0.00 in0.0 mm
12:45 AM 36.2°F2.3°C 39.8°F4.3°C 91% 0.8 mph NNW1.3 kmh NNW 0.8 mph1.3 kmh 30.39 in1029.1 mb 0.00 in0.0 mm 0.00 in0.0 mm 0.00 in0.0 mm
12:48 AM 36.2°F2.3°C 39.7°F4.3°C 91% 2.4 mph W3.9 kmh W 2.4 mph3.9 kmh 30.39 in1029.1 mb 0.00 in0.0 mm 0.00 in0.0 mm 0.00 in0.0 mm
12:51 AM 36.2°F2.3°C 40.2°F4.6°C 92% 3.6 mph NW5.8 kmh NW 3.7 mph6.0 kmh 30.40 in1029.5 mb 0.00 in0.0 mm 0.00 in0.0 mm 0.00 in0.0 mm
12:57 AM 36.2°F2.3°C 40.1°F4.5°C 91% 4.4 mph WNW7.1 kmh WNW 4.5 mph7.2 kmh 30.39 in1029.1 mb 0.00 in0.0 mm 0.00 in0.0 mm 0.00 in0.0 mm
01:00 AM 36.2°F2.3°C 39.8°F4.3°C 91% 0.8 mph NW1.3 kmh NW 0.8 mph1.3 kmh 30.39 in1029.1 mb 0.00 in0.0 mm 0.00 in0.0 mm 0.00 in0.0 mm
01:03 AM 36.1°F2.3°C 39.3°F4.1°C 90% 1.6 mph NNW2.6 kmh NNW 1.6 mph2.6 kmh 30.39 in1029.1 mb 0.00 in0.0 mm 0.00 in0.0 mm 0.00 in0.0 mm
01:09 AM 36.2°F2.3°C 39.8°F4.3°C 91% 3.6 mph W5.8 kmh W 3.6 mph5.8 kmh 30.39 in1029.1 mb 0.00 in0.0 mm 0.00 in0.0 mm 0.00 in0.0 mm
01:12 AM 36.1°F2.3°C 39.9°F4.4°C 91% 3.6 mph W5.8 kmh W 3.7 mph6.0 kmh 30.39 in1029.1 mb 0.00 in0.0 mm 0.00 in0.0 mm 0.00 in0.0 mm
01:15 AM 36.1°F2.3°C 39.9°F4.4°C 91% 2.8 mph W4.5 kmh W 2.9 mph4.7 kmh 30.39 in1029.1 mb 0.00 in0.0 mm 0.00 in0.0 mm 0.00 in0.0 mm
01:18 AM 35.9°F2.2°C 39.7°F4.3°C 91% 1.6 mph WSW2.6 kmh WSW 1.6 mph2.6 kmh 30.39 in1029.1 mb 0.00 in0.0 mm 0.00 in0.0 mm 0.00 in0.0 mm
01:21 AM 35.9°F2.2°C 39.6°F4.2°C 91% 3.6 mph WNW5.8 kmh WNW 3.7 mph6.0 kmh 30.39 in1029.1 mb 0.00 in0.0 mm 0.00 in0.0 mm 0.00 in0.0 mm
01:24 AM 36.1°F2.3°C 39.6°F4.2°C 91% 5.6 mph WNW9.0 kmh WNW 5.6 mph9.0 kmh 30.39 in1029.1 mb 0.00 in0.0 mm 0.00 in0.0 mm 0.00 in0.0 mm
01:27 AM 36.1°F2.3°C 39.7°F4.3°C 91% 4.0 mph WNW6.4 kmh WNW 4.1 mph6.6 kmh 30.39 in1029.1 mb 0.00 in0.0 mm 0.00 in0.0 mm 0.00 in0.0 mm
01:30 AM 36.1°F2.3°C 39.8°F4.3°C 91% 0.4 mph W0.6 kmh W 0.4 mph0.6 kmh 30.39 in1029.1 mb 0.00 in0.0 mm 0.00 in0.0 mm 0.00 in0.0 mm
01:33 AM 35.9°F2.2°C 39.9°F4.4°C 91% 3.6 mph W5.8 kmh W 3.6 mph5.8 kmh 30.39 in1029.1 mb 0.00 in0.0 mm 0.00 in0.0 mm 0.00 in0.0 mm
01:36 AM 36.1°F2.3°C 39.4°F4.1°C 90% Calm Calm -- 30.39 in1029.1 mb 0.00 in0.0 mm 0.00 in0.0 mm 0.00 in0.0 mm
01:39 AM 35.9°F2.2°C 39.3°F4.1°C 90% 2.4 mph W3.9 kmh W 2.4 mph3.9 kmh 30.39 in1029.1 mb 0.00 in0.0 mm 0.00 in0.0 mm 0.00 in0.0 mm
01:42 AM 36.1°F2.3°C 39.8°F4.3°C 91% 0.8 mph WNW1.3 kmh WNW 0.8 mph1.3 kmh 30.39 in1029.1 mb 0.00 in0.0 mm 0.00 in0.0 mm 0.00 in0.0 mm
01:45 AM 36.1°F2.3°C 39.8°F4.3°C 91% 2.4 mph WNW3.9 kmh WNW 2.4 mph3.9 kmh 30.39 in1029.1 mb 0.00 in0.0 mm 0.00 in0.0 mm 0.00 in0.0 mm
01:48 AM 35.9°F2.2°C 39.7°F4.3°C 91% 0.8 mph WNW1.3 kmh WNW 0.8 mph1.3 kmh 30.39 in1029.1 mb 0.00 in0.0 mm 0.00 in0.0 mm 0.00 in0.0 mm
01:51 AM 36.1°F2.3°C 39.8°F4.3°C 91% 4.0 mph W6.4 kmh W 4.1 mph6.6 kmh 30.39 in1029.1 mb 0.00 in0.0 mm 0.00 in0.0 mm 0.00 in0.0 mm
01:57 AM 36.1°F2.3°C 39.7°F4.3°C 91% 1.2 mph WSW1.9 kmh WSW 1.2 mph1.9 kmh 30.39 in1029.1 mb 0.00 in0.0 mm 0.00 in0.0 mm 0.00 in0.0 mm
02:00 AM 36.1°F2.3°C 39.6°F4.2°C 91% 2.4 mph W3.9 kmh W 2.4 mph3.9 kmh 30.39 in1029.1 mb 0.00 in0.0 mm 0.00 in0.0 mm 0.00 in0.0 mm
02:03 AM 35.9°F2.2°C 39.6°F4.2°C 91% Calm Calm -- 30.39 in1029.1 mb 0.00 in0.0 mm 0.00 in0.0 mm 0.00 in0.0 mm
02:06 AM 36.1°F2.3°C 39.6°F4.2°C 91% 7.3 mph NNW11.7 kmh NNW 7.3 mph11.7 kmh 30.39 in1029.1 mb 0.00 in0.0 mm 0.00 in0.0 mm 0.00 in0.0 mm
02:09 AM 36.1°F2.3°C 39.7°F4.3°C 91% 3.6 mph W5.8 kmh W 3.7 mph6.0 kmh 30.39 in1029.1 mb 0.00 in0.0 mm 0.00 in0.0 mm 0.00 in0.0 mm
02:12 AM 35.9°F2.2°C 39.5°F4.2°C 91% 4.8 mph WSW7.7 kmh WSW 4.9 mph7.9 kmh 30.39 in1029.1 mb 0.00 in0.0 mm 0.00 in0.0 mm 0.00 in0.0 mm
02:15 AM 36.1°F2.3°C 39.7°F4.3°C 91% 0.8 mph W1.3 kmh W 0.8 mph1.3 kmh 30.39 in1029.1 mb 0.00 in0.0 mm 0.00 in0.0 mm 0.00 in0.0 mm
02:18 AM 36.1°F2.3°C 39.6°F4.2°C 90% 4.0 mph W6.4 kmh W 4.0 mph6.4 kmh 30.39 in1029.1 mb 0.00 in0.0 mm 0.00 in0.0 mm 0.00 in0.0 mm
02:21 AM 36.2°F2.3°C 39.7°F4.3°C 91% 2.8 mph W4.5 kmh W 2.9 mph4.7 kmh 30.39 in1029.1 mb 0.00 in0.0 mm 0.00 in0.0 mm 0.00 in0.0 mm
02:24 AM 36.1°F2.3°C 39.7°F4.3°C 91% 4.0 mph W6.4 kmh W 4.1 mph6.6 kmh 30.39 in1029.1 mb 0.00 in0.0 mm 0.00 in0.0 mm 0.00 in0.0 mm
02:27 AM 36.2°F2.3°C 39.9°F4.4°C 91% 3.6 mph W5.8 kmh W 3.6 mph5.8 kmh 30.39 in1029.1 mb 0.00 in0.0 mm 0.00 in0.0 mm 0.00 in0.0 mm
02:30 AM 36.2°F2.3°C 40.0°F4.4°C 91% 4.4 mph NNW7.1 kmh NNW 4.5 mph7.2 kmh 30.39 in1029.1 mb 0.00 in0.0 mm 0.00 in0.0 mm 0.00 in0.0 mm
02:33 AM 36.2°F2.3°C 39.7°F4.3°C 91% 2.4 mph W3.9 kmh W 2.4 mph3.9 kmh 30.39 in1029.1 mb 0.00 in0.0 mm 0.00 in0.0 mm 0.00 in0.0 mm
02:36 AM 36.2°F2.3°C 39.4°F4.1°C 90% 3.2 mph W5.1 kmh W 3.3 mph5.3 kmh 30.39 in1029.1 mb 0.00 in0.0 mm 0.00 in0.0 mm 0.00 in0.0 mm
02:39 AM 36.2°F2.3°C 39.8°F4.3°C 91% 7.9 mph W12.7 kmh W 7.9 mph12.7 kmh 30.39 in1029.1 mb 0.00 in0.0 mm 0.00 in0.0 mm 0.00 in0.0 mm
02:42 AM 36.3°F2.4°C 39.5°F4.2°C 91% 6.1 mph NW9.8 kmh NW 6.1 mph9.8 kmh 30.39 in1029.1 mb 0.00 in0.0 mm 0.00 in0.0 mm 0.00 in0.0 mm
02:45 AM 36.2°F2.3°C 39.5°F4.2°C 90% 4.4 mph NNW7.1 kmh NNW 4.5 mph7.2 kmh 30.39 in1029.1 mb 0.00 in0.0 mm 0.00 in0.0 mm 0.00 in0.0 mm
02:48 AM 36.1°F2.3°C 39.6°F4.2°C 91% 5.3 mph WNW8.5 kmh WNW 5.3 mph8.5 kmh 30.39 in1029.1 mb 0.00 in0.0 mm 0.00 in0.0 mm 0.00 in0.0 mm
02:51 AM 36.2°F2.3°C 39.6°F4.2°C 91% 3.2 mph WNW5.1 kmh WNW 3.3 mph5.3 kmh 30.39 in1029.1 mb 0.00 in0.0 mm 0.00 in0.0 mm 0.00 in0.0 mm
02:54 AM 36.1°F2.3°C 39.7°F4.3°C 91% 6.0 mph W9.7 kmh W 6.0 mph9.7 kmh 30.39 in1029.1 mb 0.00 in0.0 mm 0.00 in0.0 mm 0.00 in0.0 mm
02:57 AM 36.1°F2.3°C 39.6°F4.2°C 90% 1.6 mph NNW2.6 kmh NNW 1.6 mph2.6 kmh 30.39 in1029.1 mb 0.00 in0.0 mm 0.00 in0.0 mm 0.00 in0.0 mm
03:00 AM 36.1°F2.3°C 39.7°F4.3°C 90% 1.6 mph NNW2.6 kmh NNW 1.6 mph2.6 kmh 30.39 in1029.1 mb 0.00 in0.0 mm 0.00 in0.0 mm 0.00 in0.0 mm
03:03 AM 36.2°F2.3°C 39.7°F4.3°C 91% 4.8 mph W7.7 kmh W 4.8 mph7.7 kmh 30.38 in1028.8 mb 0.00 in0.0 mm 0.00 in0.0 mm 0.00 in0.0 mm
03:06 AM 36.1°F2.3°C 39.7°F4.3°C 91% 2.4 mph WNW3.9 kmh WNW 2.4 mph3.9 kmh 30.39 in1029.1 mb 0.00 in0.0 mm 0.00 in0.0 mm 0.00 in0.0 mm
03:09 AM 36.2°F2.3°C 39.7°F4.3°C 90% 5.2 mph W8.4 kmh W 5.3 mph8.5 kmh 30.38 in1028.8 mb 0.00 in0.0 mm 0.00 in0.0 mm 0.00 in0.0 mm
03:12 AM 36.2°F2.3°C 39.7°F4.3°C 90% 3.6 mph W5.8 kmh W 3.7 mph6.0 kmh 30.38 in1028.8 mb 0.00 in0.0 mm 0.00 in0.0 mm 0.00 in0.0 mm
03:15 AM 36.2°F2.3°C 39.8°F4.3°C 91% 6.1 mph W9.8 kmh W 6.1 mph9.8 kmh 30.38 in1028.8 mb 0.00 in0.0 mm 0.00 in0.0 mm 0.00 in0.0 mm
03:18 AM 36.2°F2.3°C 39.8°F4.3°C 90% Calm Calm -- 30.38 in1028.8 mb 0.00 in0.0 mm 0.00 in0.0 mm 0.00 in0.0 mm
03:21 AM 36.2°F2.3°C 39.5°F4.2°C 90% 5.3 mph WNW8.5 kmh WNW 5.3 mph8.5 kmh 30.38 in1028.8 mb 0.00 in0.0 mm 0.00 in0.0 mm 0.00 in0.0 mm
03:24 AM 36.2°F2.3°C 39.6°F4.2°C 90% 3.6 mph W5.8 kmh W 3.6 mph5.8 kmh 30.38 in1028.8 mb 0.00 in0.0 mm 0.00 in0.0 mm 0.00 in0.0 mm
03:27 AM 36.2°F2.3°C 39.7°F4.3°C 90% 3.2 mph NNW5.1 kmh NNW 3.2 mph5.1 kmh 30.38 in1028.8 mb 0.00 in0.0 mm 0.00 in0.0 mm 0.00 in0.0 mm
03:30 AM 36.1°F2.3°C 39.6°F4.2°C 90% 3.6 mph W5.8 kmh W 3.7 mph6.0 kmh 30.38 in1028.8 mb 0.00 in0.0 mm 0.00 in0.0 mm 0.00 in0.0 mm
03:33 AM 36.1°F2.3°C 39.7°F4.3°C 90% 4.0 mph W6.4 kmh W 4.1 mph6.6 kmh 30.38 in1028.8 mb 0.00 in0.0 mm 0.00 in0.0 mm 0.00 in0.0 mm
03:36 AM 36.1°F2.3°C 39.4°F4.1°C 90% 5.3 mph W8.5 kmh W 5.3 mph8.5 kmh 30.38 in1028.8 mb 0.00 in0.0 mm 0.00 in0.0 mm 0.00 in0.0 mm
03:39 AM 36.1°F2.3°C 39.4°F4.1°C 90% 0.4 mph WNW0.6 kmh WNW 0.4 mph0.6 kmh 30.38 in1028.8 mb 0.00 in0.0 mm 0.00 in0.0 mm 0.00 in0.0 mm
03:42 AM 36.1°F2.3°C 39.5°F4.2°C 90% 6.4 mph WSW10.3 kmh WSW 6.4 mph10.3 kmh 30.38 in1028.8 mb 0.00 in0.0 mm 0.00 in0.0 mm 0.00 in0.0 mm
03:45 AM 35.9°F2.2°C 39.5°F4.2°C 90% 3.2 mph W5.1 kmh W 3.2 mph5.1 kmh 30.38 in1028.8 mb 0.00 in0.0 mm 0.00 in0.0 mm 0.00 in0.0 mm
03:48 AM 36.2°F2.3°C 39.6°F4.2°C 90% 2.8 mph WNW4.5 kmh WNW 2.8 mph4.5 kmh 30.37 in1028.4 mb 0.00 in0.0 mm 0.00 in0.0 mm 0.00 in0.0 mm
03:51 AM 36.1°F2.3°C 39.5°F4.2°C 90% 3.6 mph W5.8 kmh W 3.6 mph5.8 kmh 30.37 in1028.4 mb 0.00 in0.0 mm 0.00 in0.0 mm 0.00 in0.0 mm
03:54 AM 36.1°F2.3°C 39.4°F4.1°C 90% 2.4 mph NNW3.9 kmh NNW 2.4 mph3.9 kmh 30.37 in1028.4 mb 0.00 in0.0 mm 0.00 in0.0 mm 0.00 in0.0 mm
03:57 AM 35.9°F2.2°C 39.4°F4.1°C 90% 3.6 mph W5.8 kmh W 3.7 mph6.0 kmh 30.38 in1028.8 mb 0.00 in0.0 mm 0.00 in0.0 mm 0.00 in0.0 mm
04:00 AM 36.2°F2.3°C 39.4°F4.1°C 90% 1.6 mph WNW2.6 kmh WNW 1.6 mph2.6 kmh 30.38 in1028.8 mb 0.00 in0.0 mm 0.00 in0.0 mm 0.00 in0.0 mm
04:03 AM 36.1°F2.3°C 39.4°F4.1°C 90% 2.0 mph NNW3.2 kmh NNW 2.0 mph3.2 kmh 30.37 in1028.4 mb 0.00 in0.0 mm 0.00 in0.0 mm 0.00 in0.0 mm
04:06 AM 36.1°F2.3°C 39.5°F4.2°C 90% 0.4 mph NW0.6 kmh NW 0.4 mph0.6 kmh 30.37 in1028.4 mb 0.00 in0.0 mm 0.00 in0.0 mm 0.00 in0.0 mm
04:09 AM 36.1°F2.3°C 39.4°F4.1°C 90% 3.2 mph W5.1 kmh W 3.2 mph5.1 kmh 30.37 in1028.4 mb 0.00 in0.0 mm 0.00 in0.0 mm 0.00 in0.0 mm
04:12 AM 36.1°F2.3°C 39.1°F3.9°C 89% 1.6 mph WNW2.6 kmh WNW 1.6 mph2.6 kmh 30.37 in1028.4 mb 0.00 in0.0 mm 0.00 in0.0 mm 0.00 in0.0 mm
04:15 AM 36.1°F2.3°C 39.5°F4.2°C 90% 2.0 mph W3.2 kmh W 2.0 mph3.2 kmh 30.37 in1028.4 mb 0.00 in0.0 mm 0.00 in0.0 mm 0.00 in0.0 mm
04:18 AM 35.9°F2.2°C 39.3°F4.1°C 90% 6.1 mph NNW9.8 kmh NNW 6.1 mph9.8 kmh 30.37 in1028.4 mb 0.00 in0.0 mm 0.00 in0.0 mm 0.00 in0.0 mm
04:21 AM 35.9°F2.2°C 39.5°F4.2°C 90% 3.6 mph NNW5.8 kmh NNW 3.6 mph5.8 kmh 30.38 in1028.8 mb 0.00 in0.0 mm 0.00 in0.0 mm 0.00 in0.0 mm
04:24 AM 35.9°F2.2°C 39.0°F3.9°C 88% 4.4 mph NNW7.1 kmh NNW 4.5 mph7.2 kmh 30.38 in1028.8 mb 0.00 in0.0 mm 0.00 in0.0 mm 0.00 in0.0 mm
04:27 AM 35.9°F2.2°C 39.2°F4.0°C 89% Calm Calm -- 30.38 in1028.8 mb 0.00 in0.0 mm 0.00 in0.0 mm 0.00 in0.0 mm
04:30 AM 35.8°F2.1°C 39.4°F4.1°C 90% 4.4 mph NNW7.1 kmh NNW 4.4 mph7.1 kmh 30.37 in1028.4 mb 0.00 in0.0 mm 0.00 in0.0 mm 0.00 in0.0 mm
04:33 AM 35.9°F2.2°C 38.9°F3.8°C 88% 2.8 mph W4.5 kmh W 2.9 mph4.7 kmh 30.37 in1028.4 mb 0.00 in0.0 mm 0.00 in0.0 mm 0.00 in0.0 mm
04:36 AM 35.9°F2.2°C 39.3°F4.1°C 89% 8.8 mph W14.2 kmh W 8.8 mph14.2 kmh 30.37 in1028.4 mb 0.00 in0.0 mm 0.00 in0.0 mm 0.00 in0.0 mm
04:39 AM 35.8°F2.1°C 39.2°F4.0°C 90% 2.8 mph WNW4.5 kmh WNW 2.9 mph4.7 kmh 30.37 in1028.4 mb 0.00 in0.0 mm 0.00 in0.0 mm 0.00 in0.0 mm
04:42 AM 35.8°F2.1°C 39.3°F4.1°C 90% 1.6 mph W2.6 kmh W 1.6 mph2.6 kmh 30.37 in1028.4 mb 0.00 in0.0 mm 0.00 in0.0 mm 0.00 in0.0 mm
04:45 AM 35.8°F2.1°C 39.1°F3.9°C 89% 1.6 mph NNW2.6 kmh NNW 1.6 mph2.6 kmh 30.37 in1028.4 mb 0.00 in0.0 mm 0.00 in0.0 mm 0.00 in0.0 mm
04:48 AM 35.9°F2.2°C 39.1°F3.9°C 89% 3.2 mph W5.1 kmh W 3.3 mph5.3 kmh 30.37 in1028.4 mb 0.00 in0.0 mm 0.00 in0.0 mm 0.00 in0.0 mm
04:51 AM 35.9°F2.2°C 39.1°F3.9°C 89% 2.4 mph W3.9 kmh W 2.4 mph3.9 kmh 30.37 in1028.4 mb 0.00 in0.0 mm 0.00 in0.0 mm 0.00 in0.0 mm
04:54 AM 35.9°F2.2°C 38.8°F3.8°C 89% 1.6 mph W2.6 kmh W 1.6 mph2.6 kmh 30.37 in1028.4 mb 0.00 in0.0 mm 0.00 in0.0 mm 0.00 in0.0 mm
04:57 AM 35.9°F2.2°C 39.2°F4.0°C 89% 3.6 mph WSW5.8 kmh WSW 3.6 mph5.8 kmh 30.37 in1028.4 mb 0.00 in0.0 mm 0.00 in0.0 mm 0.00 in0.0 mm
05:00 AM 35.9°F2.2°C 39.0°F3.9°C 89% 2.4 mph NNW3.9 kmh NNW 2.4 mph3.9 kmh 30.37 in1028.4 mb 0.00 in0.0 mm 0.00 in0.0 mm 0.00 in0.0 mm
05:03 AM 35.9°F2.2°C 38.9°F3.8°C 89% 3.2 mph W5.1 kmh W 3.3 mph5.3 kmh 30.37 in1028.4 mb 0.00 in0.0 mm 0.00 in0.0 mm 0.00 in0.0 mm
05:06 AM 35.9°F2.2°C 39.0°F3.9°C 89% 4.4 mph W7.1 kmh W 4.5 mph7.2 kmh 30.37 in1028.4 mb 0.00 in0.0 mm 0.00 in0.0 mm 0.00 in0.0 mm
05:09 AM 35.9°F2.2°C 39.0°F3.9°C 89% 2.4 mph W3.9 kmh W 2.4 mph3.9 kmh 30.37 in1028.4 mb 0.00 in0.0 mm 0.00 in0.0 mm 0.00 in0.0 mm
05:12 AM 35.9°F2.2°C 39.1°F3.9°C 89% 2.0 mph W3.2 kmh W 2.0 mph3.2 kmh 30.37 in1028.4 mb 0.00 in0.0 mm 0.00 in0.0 mm 0.00 in0.0 mm
05:15 AM 35.8°F2.1°C 38.8°F3.8°C 88% 5.2 mph W8.4 kmh W 5.2 mph8.4 kmh 30.37 in1028.4 mb 0.00 in0.0 mm 0.00 in0.0 mm 0.00 in0.0 mm
05:18 AM 35.9°F2.2°C 38.9°F3.8°C 89% 7.2 mph W11.6 kmh W 7.2 mph11.6 kmh 30.37 in1028.4 mb 0.00 in0.0 mm 0.00 in0.0 mm 0.00 in0.0 mm
05:21 AM 35.8°F2.1°C 39.1°F3.9°C 89% 1.6 mph W2.6 kmh W 1.6 mph2.6 kmh 30.37 in1028.4 mb 0.00 in0.0 mm 0.00 in0.0 mm 0.00 in0.0 mm
05:24 AM 35.8°F2.1°C 39.3°F4.1°C 89% 1.6 mph W2.6 kmh W 1.6 mph2.6 kmh 30.37 in1028.4 mb 0.00 in0.0 mm 0.00 in0.0 mm 0.00 in0.0 mm
05:27 AM 35.8°F2.1°C 39.2°F4.0°C 89% 2.8 mph W4.5 kmh W 2.8 mph4.5 kmh 30.37 in1028.4 mb 0.00 in0.0 mm 0.00 in0.0 mm 0.00 in0.0 mm
05:30 AM 35.7°F2.1°C 39.0°F3.9°C 89% 4.0 mph WNW6.4 kmh WNW 4.1 mph6.6 kmh 30.37 in1028.4 mb 0.00 in0.0 mm 0.00 in0.0 mm 0.00 in0.0 mm
05:33 AM 35.8°F2.1°C 39.3°F4.1°C 89% Calm Calm -- 30.37 in1028.4 mb 0.00 in0.0 mm 0.00 in0.0 mm 0.00 in0.0 mm
05:36 AM 35.8°F2.1°C 38.7°F3.7°C 88% 0.4 mph NNW0.6 kmh NNW 0.4 mph0.6 kmh 30.37 in1028.4 mb 0.00 in0.0 mm 0.00 in0.0 mm 0.00 in0.0 mm
05:39 AM 35.7°F2.1°C 38.5°F3.6°C 87% 4.4 mph WNW7.1 kmh WNW 4.5 mph7.2 kmh 30.37 in1028.4 mb 0.00 in0.0 mm 0.00 in0.0 mm 0.00 in0.0 mm
05:42 AM 35.8°F2.1°C 38.9°F3.8°C 89% 2.4 mph WNW3.9 kmh WNW 2.4 mph3.9 kmh 30.37 in1028.4 mb 0.00 in0.0 mm 0.00 in0.0 mm 0.00 in0.0 mm
05:45 AM 35.8°F2.1°C 39.0°F3.9°C 89% 2.4 mph W3.9 kmh W 2.4 mph3.9 kmh 30.37 in1028.4 mb 0.00 in0.0 mm 0.00 in0.0 mm 0.00 in0.0 mm
05:48 AM 35.8°F2.1°C 38.7°F3.7°C 88% 1.2 mph W1.9 kmh W 1.2 mph1.9 kmh 30.37 in1028.4 mb 0.00 in0.0 mm 0.00 in0.0 mm 0.00 in0.0 mm
05:51 AM 35.8°F2.1°C 38.9°F3.8°C 89% 4.4 mph NW7.1 kmh NW 4.4 mph7.1 kmh 30.36 in1028.1 mb 0.00 in0.0 mm 0.00 in0.0 mm 0.00 in0.0 mm
05:54 AM 35.8°F2.1°C 38.9°F3.8°C 88% 6.1 mph W9.8 kmh W 6.1 mph9.8 kmh 30.36 in1028.1 mb 0.00 in0.0 mm 0.00 in0.0 mm 0.00 in0.0 mm
05:57 AM 35.8°F2.1°C 38.8°F3.8°C 88% 5.7 mph W9.2 kmh W 5.7 mph9.2 kmh 30.37 in1028.4 mb 0.00 in0.0 mm 0.00 in0.0 mm 0.00 in0.0 mm
06:00 AM 35.8°F2.1°C 38.7°F3.7°C 88% 2.4 mph WSW3.9 kmh WSW 2.4 mph3.9 kmh 30.37 in1028.4 mb 0.00 in0.0 mm 0.00 in0.0 mm 0.00 in0.0 mm
06:03 AM 35.8°F2.1°C 38.6°F3.7°C 88% 2.4 mph W3.9 kmh W 2.4 mph3.9 kmh 30.36 in1028.1 mb 0.00 in0.0 mm 0.00 in0.0 mm 0.00 in0.0 mm
06:06 AM 35.7°F2.1°C 38.6°F3.7°C 87% 2.0 mph WNW3.2 kmh WNW 2.0 mph3.2 kmh 30.36 in1028.1 mb 0.00 in0.0 mm 0.00 in0.0 mm 0.00 in0.0 mm
06:09 AM 35.8°F2.1°C 38.8°F3.8°C 88% 4.0 mph NNW6.4 kmh NNW 4.1 mph6.6 kmh 30.36 in1028.1 mb 0.00 in0.0 mm 0.00 in0.0 mm 0.00 in0.0 mm
06:12 AM 35.7°F2.1°C 38.8°F3.8°C 88% 3.6 mph W5.8 kmh W 3.6 mph5.8 kmh 30.36 in1028.1 mb 0.00 in0.0 mm 0.00 in0.0 mm 0.00 in0.0 mm
06:15 AM 35.7°F2.1°C 38.9°F3.8°C 88% 2.0 mph W3.2 kmh W 2.0 mph3.2 kmh 30.37 in1028.4 mb 0.00 in0.0 mm 0.00 in0.0 mm 0.00 in0.0 mm
06:18 AM 35.7°F2.1°C 38.7°F3.7°C 88% 0.8 mph NW1.3 kmh NW 0.8 mph1.3 kmh 30.37 in1028.4 mb 0.00 in0.0 mm 0.00 in0.0 mm 0.00 in0.0 mm
06:21 AM 35.8°F2.1°C 39.1°F3.9°C 89% 5.2 mph WSW8.4 kmh WSW 5.2 mph8.4 kmh 30.36 in1028.1 mb 0.00 in0.0 mm 0.00 in0.0 mm 0.00 in0.0 mm
06:24 AM 35.7°F2.1°C 39.1°F3.9°C 89% 4.8 mph NNW7.7 kmh NNW 4.9 mph7.9 kmh 30.37 in1028.4 mb 0.00 in0.0 mm 0.00 in0.0 mm 0.00 in0.0 mm
06:27 AM 35.8°F2.1°C 39.0°F3.9°C 89% Calm Calm -- 30.36 in1028.1 mb 0.00 in0.0 mm 0.00 in0.0 mm 0.00 in0.0 mm
06:30 AM 35.7°F2.1°C 38.6°F3.7°C 87% 3.2 mph NW5.1 kmh NW 3.3 mph5.3 kmh 30.37 in1028.4 mb 0.00 in0.0 mm 0.00 in0.0 mm 0.00 in0.0 mm
06:33 AM 35.7°F2.1°C 38.8°F3.8°C 88% 3.2 mph NNW5.1 kmh NNW 3.3 mph5.3 kmh 30.36 in1028.1 mb 0.00 in0.0 mm 0.00 in0.0 mm 0.00 in0.0 mm
06:36 AM 35.7°F2.1°C 38.9°F3.8°C 88% 2.0 mph NNW3.2 kmh NNW 2.0 mph3.2 kmh 30.37 in1028.4 mb 0.00 in0.0 mm 0.00 in0.0 mm 0.00 in0.0 mm
06:39 AM 35.7°F2.1°C 38.8°F3.8°C 88% Calm Calm -- 30.37 in1028.4 mb 0.00 in0.0 mm 0.00 in0.0 mm 0.00 in0.0 mm
06:42 AM 35.6°F2.0°C 38.9°F3.8°C 88% 2.4 mph NNW3.9 kmh NNW 2.4 mph3.9 kmh 30.36 in1028.1 mb 0.00 in0.0 mm 0.00 in0.0 mm 0.00 in0.0 mm
06:45 AM 35.6°F2.0°C 38.9°F3.8°C 88% 3.2 mph WNW5.1 kmh WNW 3.3 mph5.3 kmh 30.37 in1028.4 mb 0.00 in0.0 mm 0.00 in0.0 mm 0.00 in0.0 mm
06:48 AM 35.7°F2.1°C 38.9°F3.8°C 88% 0.4 mph NNW0.6 kmh NNW 0.4 mph0.6 kmh 30.36 in1028.1 mb 0.00 in0.0 mm 0.00 in0.0 mm 0.00 in0.0 mm
06:51 AM 35.7°F2.1°C 38.8°F3.8°C 88% 2.0 mph W3.2 kmh W 2.0 mph3.2 kmh 30.36 in1028.1 mb 0.00 in0.0 mm 0.00 in0.0 mm 0.00 in0.0 mm
06:54 AM 35.7°F2.1°C 38.5°F3.6°C 87% 1.2 mph W1.9 kmh W 1.2 mph1.9 kmh 30.37 in1028.4 mb 0.00 in0.0 mm 0.00 in0.0 mm 0.00 in0.0 mm
06:57 AM 35.7°F2.1°C 38.8°F3.8°C 88% 3.6 mph WSW5.8 kmh WSW 3.7 mph6.0 kmh 30.36 in1028.1 mb 0.00 in0.0 mm 0.00 in0.0 mm 0.00 in0.0 mm
07:00 AM 35.7°F2.1°C 38.7°F3.7°C 88% 0.8 mph NNW1.3 kmh NNW 0.8 mph1.3 kmh 30.36 in1028.1 mb 0.00 in0.0 mm 0.00 in0.0 mm 0.00 in0.0 mm
07:03 AM 35.8°F2.1°C 38.6°F3.7°C 88% 4.0 mph NNW6.4 kmh NNW 4.1 mph6.6 kmh 30.36 in1028.1 mb 0.00 in0.0 mm 0.00 in0.0 mm 0.00 in0.0 mm
07:06 AM 35.6°F2.0°C 38.6°F3.7°C 88% 0.4 mph NNW0.6 kmh NNW 0.4 mph0.6 kmh 30.37 in1028.4 mb 0.00 in0.0 mm 0.00 in0.0 mm 0.00 in0.0 mm
07:09 AM 35.7°F2.1°C 38.6°F3.7°C 88% 2.4 mph NNW3.9 kmh NNW 2.4 mph3.9 kmh 30.36 in1028.1 mb 0.00 in0.0 mm 0.00 in0.0 mm 0.00 in0.0 mm
07:12 AM 35.6°F2.0°C 38.6°F3.7°C 88% 2.4 mph W3.9 kmh W 2.4 mph3.9 kmh 30.37 in1028.4 mb 0.00 in0.0 mm 0.00 in0.0 mm 0.00 in0.0 mm
07:15 AM 35.7°F2.1°C 38.7°F3.7°C 88% 1.6 mph WNW2.6 kmh WNW 1.6 mph2.6 kmh 30.36 in1028.1 mb 0.00 in0.0 mm 0.00 in0.0 mm 0.00 in0.0 mm
07:18 AM 35.7°F2.1°C 39.0°F3.9°C 88% 1.6 mph W2.6 kmh W 1.6 mph2.6 kmh 30.36 in1028.1 mb 0.00 in0.0 mm 0.00 in0.0 mm 0.00 in0.0 mm
07:21 AM 35.6°F2.0°C 38.6°F3.7°C 88% 1.2 mph W1.9 kmh W 1.2 mph1.9 kmh 30.36 in1028.1 mb 0.00 in0.0 mm 0.00 in0.0 mm 0.00 in0.0 mm
07:24 AM 35.7°F2.1°C 38.7°F3.7°C 88% 3.6 mph NNW5.8 kmh NNW 3.7 mph6.0 kmh 30.36 in1028.1 mb 0.00 in0.0 mm 0.00 in0.0 mm 0.00 in0.0 mm
07:27 AM 35.7°F2.1°C 38.6°F3.7°C 88% 1.2 mph W1.9 kmh W 1.2 mph1.9 kmh 30.35 in1027.8 mb 0.00 in0.0 mm 0.00 in0.0 mm 0.00 in0.0 mm
07:30 AM 35.6°F2.0°C 38.8°F3.8°C 88% 2.3 mph W3.7 kmh W 2.3 mph3.7 kmh 30.35 in1027.8 mb 0.00 in0.0 mm 0.00 in0.0 mm 0.00 in0.0 mm
07:33 AM 35.7°F2.1°C 38.6°F3.7°C 88% 3.6 mph W5.8 kmh W 3.7 mph6.0 kmh 30.35 in1027.8 mb 0.00 in0.0 mm 0.00 in0.0 mm 0.00 in0.0 mm
07:36 AM 35.7°F2.1°C 38.7°F3.7°C 88% 1.6 mph WSW2.6 kmh WSW 1.6 mph2.6 kmh 30.35 in1027.8 mb 0.00 in0.0 mm 0.00 in0.0 mm 0.00 in0.0 mm
07:39 AM 35.7°F2.1°C 38.6°F3.7°C 88% 0.8 mph W1.3 kmh W 0.8 mph1.3 kmh 30.36 in1028.1 mb 0.00 in0.0 mm 0.00 in0.0 mm 0.00 in0.0 mm
07:42 AM 35.7°F2.1°C 38.8°F3.8°C 88% 2.0 mph W3.2 kmh W 2.0 mph3.2 kmh 30.35 in1027.8 mb 0.00 in0.0 mm 0.00 in0.0 mm 0.00 in0.0 mm
07:45 AM 35.7°F2.1°C 39.0°F3.9°C 88% 1.2 mph WSW1.9 kmh WSW 1.2 mph1.9 kmh 30.35 in1027.8 mb 0.00 in0.0 mm 0.00 in0.0 mm 0.00 in0.0 mm
07:48 AM 35.6°F2.0°C 38.6°F3.7°C 88% 2.0 mph W3.2 kmh W 2.0 mph3.2 kmh 30.35 in1027.8 mb 0.00 in0.0 mm 0.00 in0.0 mm 0.00 in0.0 mm
07:51 AM 35.7°F2.1°C 38.6°F3.7°C 88% Calm Calm -- 30.35 in1027.8 mb 0.00 in0.0 mm 0.00 in0.0 mm 0.00 in0.0 mm
07:54 AM 35.6°F2.0°C 38.6°F3.7°C 88% 0.4 mph W0.6 kmh W 0.4 mph0.6 kmh 30.35 in1027.8 mb 0.00 in0.0 mm 0.00 in0.0 mm 0.00 in0.0 mm
07:57 AM 35.7°F2.1°C 38.8°F3.8°C 88% 2.8 mph NNW4.5 kmh NNW 2.8 mph4.5 kmh 30.35 in1027.8 mb 0.00 in0.0 mm 0.00 in0.0 mm 0.00 in0.0 mm
08:00 AM 35.7°F2.1°C 38.9°F3.8°C 88% 1.2 mph W1.9 kmh W 1.2 mph1.9 kmh 30.36 in1028.1 mb 0.00 in0.0 mm 0.00 in0.0 mm 0.00 in0.0 mm
08:03 AM 35.8°F2.1°C 38.8°F3.8°C 88% 1.6 mph NNW2.6 kmh NNW 1.6 mph2.6 kmh 30.36 in1028.1 mb 0.00 in0.0 mm 0.00 in0.0 mm 0.00 in0.0 mm
08:06 AM 35.7°F2.1°C 38.7°F3.7°C 88% Calm Calm -- 30.36 in1028.1 mb 0.00 in0.0 mm 0.00 in0.0 mm 0.00 in0.0 mm
08:09 AM 35.8°F2.1°C 38.6°F3.7°C 88% 3.2 mph NW5.1 kmh NW 3.3 mph5.3 kmh 30.35 in1027.8 mb 0.00 in0.0 mm 0.00 in0.0 mm 0.00 in0.0 mm
08:15 AM 35.8°F2.1°C 38.5°F3.6°C 88% 2.4 mph NW3.9 kmh NW 2.4 mph3.9 kmh 30.35 in1027.8 mb 0.00 in0.0 mm 0.00 in0.0 mm 0.00 in0.0 mm
08:18 AM 35.9°F2.2°C 38.8°F3.8°C 88% 7.1 mph W11.4 kmh W 7.2 mph11.6 kmh 30.36 in1028.1 mb 0.00 in0.0 mm 0.00 in0.0 mm 0.00 in0.0 mm
08:21 AM 35.9°F2.2°C 38.9°F3.8°C 88% 3.2 mph W5.1 kmh W 3.3 mph5.3 kmh 30.36 in1028.1 mb 0.00 in0.0 mm 0.00 in0.0 mm 0.00 in0.0 mm
08:24 AM 35.9°F2.2°C 38.8°F3.8°C 88% 5.3 mph W8.5 kmh W 5.3 mph8.5 kmh 30.36 in1028.1 mb 0.00 in0.0 mm 0.00 in0.0 mm 0.00 in0.0 mm
08:27 AM 35.9°F2.2°C 38.8°F3.8°C 88% 8.0 mph W12.9 kmh W 8.1 mph13.0 kmh 30.36 in1028.1 mb 0.00 in0.0 mm 0.00 in0.0 mm 0.00 in0.0 mm
08:30 AM 35.9°F2.2°C 38.6°F3.7°C 88% 2.4 mph WNW3.9 kmh WNW 2.4 mph3.9 kmh 30.36 in1028.1 mb 0.00 in0.0 mm 0.00 in0.0 mm 0.00 in0.0 mm
08:33 AM 36.1°F2.3°C 38.7°F3.7°C 88% 0.8 mph NW1.3 kmh NW 0.8 mph1.3 kmh 30.36 in1028.1 mb 0.00 in0.0 mm 0.00 in0.0 mm 0.00 in0.0 mm
08:36 AM 35.9°F2.2°C 38.7°F3.7°C 88% 1.6 mph W2.6 kmh W 1.6 mph2.6 kmh 30.35 in1027.8 mb 0.00 in0.0 mm 0.00 in0.0 mm 0.00 in0.0 mm
08:39 AM 35.9°F2.2°C 38.8°F3.8°C 88% 3.6 mph WNW5.8 kmh WNW 3.7 mph6.0 kmh 30.36 in1028.1 mb 0.00 in0.0 mm 0.00 in0.0 mm 0.00 in0.0 mm
08:42 AM 36.2°F2.3°C 38.9°F3.8°C 88% 4.4 mph WNW7.1 kmh WNW 4.4 mph7.1 kmh 30.36 in1028.1 mb 0.00 in0.0 mm 0.00 in0.0 mm 0.00 in0.0 mm
08:45 AM 36.2°F2.3°C 38.9°F3.8°C 88% 2.4 mph W3.9 kmh W 2.4 mph3.9 kmh 30.35 in1027.8 mb 0.00 in0.0 mm 0.00 in0.0 mm 0.00 in0.0 mm
08:48 AM 36.2°F2.3°C 38.9°F3.8°C 88% 4.4 mph NNW7.1 kmh NNW 4.4 mph7.1 kmh 30.35 in1027.8 mb 0.00 in0.0 mm 0.00 in0.0 mm 0.00 in0.0 mm
08:51 AM 36.2°F2.3°C 38.9°F3.8°C 88% 1.6 mph NNW2.6 kmh NNW 1.6 mph2.6 kmh 30.36 in1028.1 mb 0.00 in0.0 mm 0.00 in0.0 mm 0.00 in0.0 mm
08:54 AM 36.3°F2.4°C 39.1°F3.9°C 88% 5.6 mph NW9.0 kmh NW 5.6 mph9.0 kmh 30.35 in1027.8 mb 0.00 in0.0 mm 0.00 in0.0 mm 0.00 in0.0 mm
08:57 AM 36.3°F2.4°C 39.1°F3.9°C 88% 0.4 mph W0.6 kmh W 0.4 mph0.6 kmh 30.36 in1028.1 mb 0.00 in0.0 mm 0.00 in0.0 mm 0.00 in0.0 mm
09:00 AM 36.3°F2.4°C 39.1°F3.9°C 88% 0.8 mph NNW1.3 kmh NNW 0.8 mph1.3 kmh 30.36 in1028.1 mb 0.00 in0.0 mm 0.00 in0.0 mm 0.00 in0.0 mm
09:03 AM 36.3°F2.4°C 38.9°F3.8°C 88% 2.8 mph W4.5 kmh W 2.8 mph4.5 kmh 30.36 in1028.1 mb 0.00 in0.0 mm 0.00 in0.0 mm 0.00 in0.0 mm
09:06 AM 36.3°F2.4°C 38.9°F3.8°C 88% 1.6 mph W2.6 kmh W 1.6 mph2.6 kmh 30.36 in1028.1 mb 0.00 in0.0 mm 0.00 in0.0 mm 0.00 in0.0 mm
09:09 AM 36.3°F2.4°C 39.1°F3.9°C 88% 0.4 mph WNW0.6 kmh WNW 0.4 mph0.6 kmh 30.36 in1028.1 mb 0.00 in0.0 mm 0.00 in0.0 mm 0.00 in0.0 mm
09:12 AM 36.3°F2.4°C 39.2°F4.0°C 88% 2.8 mph WNW4.5 kmh WNW 2.9 mph4.7 kmh 30.36 in1028.1 mb 0.00 in0.0 mm 0.00 in0.0 mm 0.00 in0.0 mm
09:15 AM 36.4°F2.4°C 39.0°F3.9°C 88% 2.8 mph WNW4.5 kmh WNW 2.9 mph4.7 kmh 30.36 in1028.1 mb 0.00 in0.0 mm 0.00 in0.0 mm 0.00 in0.0 mm
09:18 AM 36.4°F2.4°C 39.1°F3.9°C 88% 4.8 mph WSW7.7 kmh WSW 4.8 mph7.7 kmh 30.36 in1028.1 mb 0.00 in0.0 mm 0.00 in0.0 mm 0.00 in0.0 mm
09:21 AM 36.4°F2.4°C 38.9°F3.8°C 88% 2.0 mph WNW3.2 kmh WNW 2.0 mph3.2 kmh 30.36 in1028.1 mb 0.00 in0.0 mm 0.00 in0.0 mm 0.00 in0.0 mm
09:24 AM 36.5°F2.5°C 39.1°F3.9°C 88% 5.6 mph W9.0 kmh W 5.7 mph9.2 kmh 30.37 in1028.4 mb 0.00 in0.0 mm 0.00 in0.0 mm 0.00 in0.0 mm
09:27 AM 36.5°F2.5°C 38.9°F3.8°C 88% 1.6 mph WNW2.6 kmh WNW 1.6 mph2.6 kmh 30.37 in1028.4 mb 0.00 in0.0 mm 0.00 in0.0 mm 0.00 in0.0 mm
09:30 AM 36.5°F2.5°C 39.2°F4.0°C 88% 2.0 mph W3.2 kmh W 2.0 mph3.2 kmh 30.37 in1028.4 mb 0.00 in0.0 mm 0.00 in0.0 mm 0.00 in0.0 mm
09:33 AM 36.6°F2.6°C 39.0°F3.9°C 88% 2.0 mph W3.2 kmh W 2.0 mph3.2 kmh 30.37 in1028.4 mb 0.00 in0.0 mm 0.00 in0.0 mm 0.00 in0.0 mm
09:36 AM 36.6°F2.6°C 38.9°F3.8°C 88% 0.4 mph NW0.6 kmh NW 0.4 mph0.6 kmh 30.37 in1028.4 mb 0.00 in0.0 mm 0.00 in0.0 mm 0.00 in0.0 mm
09:39 AM 36.7°F2.6°C 39.2°F4.0°C 88% 1.6 mph W2.6 kmh W 1.6 mph2.6 kmh 30.37 in1028.4 mb 0.00 in0.0 mm 0.00 in0.0 mm 0.00 in0.0 mm
09:42 AM 36.7°F2.6°C 39.2°F4.0°C 88% 2.4 mph W3.9 kmh W 2.4 mph3.9 kmh 30.37 in1028.4 mb 0.00 in0.0 mm 0.00 in0.0 mm 0.00 in0.0 mm
09:45 AM 36.7°F2.6°C 39.1°F3.9°C 88% 5.3 mph WNW8.5 kmh WNW 5.3 mph8.5 kmh 30.37 in1028.4 mb 0.00 in0.0 mm 0.00 in0.0 mm 0.00 in0.0 mm
09:51 AM 36.7°F2.6°C 39.1°F3.9°C 88% 3.2 mph NNW5.1 kmh NNW 3.3 mph5.3 kmh 30.37 in1028.4 mb 0.00 in0.0 mm 0.00 in0.0 mm 0.00 in0.0 mm
09:54 AM 36.8°F2.7°C 39.0°F3.9°C 88% 4.0 mph W6.4 kmh W 4.0 mph6.4 kmh 30.37 in1028.4 mb 0.00 in0.0 mm 0.00 in0.0 mm 0.00 in0.0 mm
09:57 AM 36.8°F2.7°C 39.3°F4.1°C 88% 6.1 mph W9.8 kmh W 6.1 mph9.8 kmh 30.37 in1028.4 mb 0.00 in0.0 mm 0.00 in0.0 mm 0.00 in0.0 mm
10:00 AM 36.8°F2.7°C 39.4°F4.1°C 88% 4.8 mph NNW7.7 kmh NNW 4.9 mph7.9 kmh 30.37 in1028.4 mb 0.00 in0.0 mm 0.00 in0.0 mm 0.00 in0.0 mm
10:03 AM 36.8°F2.7°C 39.1°F3.9°C 88% 2.8 mph W4.5 kmh W 2.8 mph4.5 kmh 30.37 in1028.4 mb 0.00 in0.0 mm 0.00 in0.0 mm 0.00 in0.0 mm
10:06 AM 36.8°F2.7°C 39.4°F4.1°C 88% 4.0 mph NNW6.4 kmh NNW 4.1 mph6.6 kmh 30.37 in1028.4 mb 0.00 in0.0 mm 0.00 in0.0 mm 0.00 in0.0 mm
10:09 AM 37.0°F2.8°C 39.2°F4.0°C 88% 1.6 mph W2.6 kmh W 1.6 mph2.6 kmh 30.37 in1028.4 mb 0.00 in0.0 mm 0.00 in0.0 mm 0.00 in0.0 mm
10:12 AM 37.1°F2.8°C 39.1°F3.9°C 87% 0.4 mph WSW0.6 kmh WSW 0.4 mph0.6 kmh 30.37 in1028.4 mb 0.00 in0.0 mm 0.00 in0.0 mm 0.00 in0.0 mm
10:15 AM 37.2°F2.9°C 39.3°F4.1°C 88% 4.0 mph NNW6.4 kmh NNW 4.1 mph6.6 kmh 30.37 in1028.4 mb 0.00 in0.0 mm 0.00 in0.0 mm 0.00 in0.0 mm
10:18 AM 37.1°F2.8°C 39.5°F4.2°C 88% 4.8 mph NW7.7 kmh NW 4.8 mph7.7 kmh 30.37 in1028.4 mb 0.00 in0.0 mm 0.00 in0.0 mm 0.00 in0.0 mm
10:21 AM 37.2°F2.9°C 39.1°F3.9°C 88% 5.2 mph W8.4 kmh W 5.3 mph8.5 kmh 30.37 in1028.4 mb 0.00 in0.0 mm 0.00 in0.0 mm 0.00 in0.0 mm
10:24 AM 37.3°F2.9°C 39.4°F4.1°C 88% 3.6 mph W5.8 kmh W 3.7 mph6.0 kmh 30.37 in1028.4 mb 0.00 in0.0 mm 0.00 in0.0 mm 0.00 in0.0 mm
10:27 AM 37.4°F3.0°C 39.0°F3.9°C 87% 2.4 mph W3.9 kmh W 2.4 mph3.9 kmh 30.37 in1028.4 mb 0.00 in0.0 mm 0.00 in0.0 mm 0.00 in0.0 mm
10:30 AM 37.4°F3.0°C 39.4°F4.1°C 88% 1.2 mph W1.9 kmh W 1.2 mph1.9 kmh 30.37 in1028.4 mb 0.00 in0.0 mm 0.00 in0.0 mm 0.00 in0.0 mm
10:33 AM 37.4°F3.0°C 39.7°F4.3°C 88% 4.0 mph NW6.4 kmh NW 4.1 mph6.6 kmh 30.37 in1028.4 mb 0.00 in0.0 mm 0.00 in0.0 mm 0.00 in0.0 mm
10:36 AM 37.3°F2.9°C 39.5°F4.2°C 88% 1.6 mph NW2.6 kmh NW 1.6 mph2.6 kmh 30.37 in1028.4 mb 0.00 in0.0 mm 0.00 in0.0 mm 0.00 in0.0 mm
10:39 AM 37.4°F3.0°C 39.5°F4.2°C 87% 3.6 mph NNW5.8 kmh NNW 3.6 mph5.8 kmh 30.37 in1028.4 mb 0.00 in0.0 mm 0.00 in0.0 mm 0.00 in0.0 mm
10:42 AM 37.4°F3.0°C 39.3°F4.1°C 87% 2.0 mph NNW3.2 kmh NNW 2.0 mph3.2 kmh 30.37 in1028.4 mb 0.00 in0.0 mm 0.00 in0.0 mm 0.00 in0.0 mm
10:45 AM 37.3°F2.9°C 39.0°F3.9°C 86% 1.6 mph NW2.6 kmh NW 1.6 mph2.6 kmh 30.37 in1028.4 mb 0.00 in0.0 mm 0.00 in0.0 mm 0.00 in0.0 mm
10:48 AM 37.4°F3.0°C 39.2°F4.0°C 87% Calm Calm -- 30.37 in1028.4 mb 0.00 in0.0 mm 0.00 in0.0 mm 0.00 in0.0 mm
10:51 AM 37.4°F3.0°C 39.6°F4.2°C 88% 2.8 mph NW4.5 kmh NW 2.9 mph4.7 kmh 30.37 in1028.4 mb 0.00 in0.0 mm 0.00 in0.0 mm 0.00 in0.0 mm
10:57 AM 37.4°F3.0°C 39.7°F4.3°C 87% 3.6 mph NNW5.8 kmh NNW 3.6 mph5.8 kmh 30.37 in1028.4 mb 0.00 in0.0 mm 0.00 in0.0 mm 0.00 in0.0 mm
11:00 AM 37.5°F3.1°C 39.5°F4.2°C 87% 3.1 mph NW5.0 kmh NW 3.1 mph5.0 kmh 30.37 in1028.4 mb 0.00 in0.0 mm 0.00 in0.0 mm 0.00 in0.0 mm
11:03 AM 37.5°F3.1°C 39.3°F4.1°C 86% 4.4 mph W7.1 kmh W 4.5 mph7.2 kmh 30.37 in1028.4 mb 0.00 in0.0 mm 0.00 in0.0 mm 0.00 in0.0 mm
11:06 AM 37.5°F3.1°C 39.3°F4.1°C 87% 4.8 mph WSW7.7 kmh WSW 4.9 mph7.9 kmh 30.37 in1028.4 mb 0.00 in0.0 mm 0.00 in0.0 mm 0.00 in0.0 mm
11:09 AM 37.6°F3.1°C 39.7°F4.3°C 87% 3.6 mph W5.8 kmh W 3.6 mph5.8 kmh 30.37 in1028.4 mb 0.00 in0.0 mm 0.00 in0.0 mm 0.00 in0.0 mm
11:12 AM 37.6°F3.1°C 39.6°F4.2°C 87% 4.0 mph W6.4 kmh W 4.1 mph6.6 kmh 30.37 in1028.4 mb 0.00 in0.0 mm 0.00 in0.0 mm 0.00 in0.0 mm
11:15 AM 37.6°F3.1°C 39.5°F4.2°C 86% 2.0 mph W3.2 kmh W 2.0 mph3.2 kmh 30.37 in1028.4 mb 0.00 in0.0 mm 0.00 in0.0 mm 0.00 in0.0 mm
11:18 AM 37.7°F3.2°C 39.6°F4.2°C 87% 3.6 mph NNW5.8 kmh NNW 3.6 mph5.8 kmh 30.37 in1028.4 mb 0.00 in0.0 mm 0.00 in0.0 mm 0.00 in0.0 mm
11:21 AM 37.7°F3.2°C 39.6°F4.2°C 87% 2.8 mph NNW4.5 kmh NNW 2.9 mph4.7 kmh 30.36 in1028.1 mb 0.00 in0.0 mm 0.00 in0.0 mm 0.00 in0.0 mm
11:24 AM 37.7°F3.2°C 39.9°F4.4°C 87% 6.1 mph W9.8 kmh W 6.1 mph9.8 kmh 30.36 in1028.1 mb 0.00 in0.0 mm 0.00 in0.0 mm 0.00 in0.0 mm
11:27 AM 37.7°F3.2°C 39.8°F4.3°C 87% 6.5 mph WNW10.5 kmh WNW 6.5 mph10.5 kmh 30.36 in1028.1 mb 0.00 in0.0 mm 0.00 in0.0 mm 0.00 in0.0 mm
11:30 AM 37.7°F3.2°C 39.9°F4.4°C 87% 4.0 mph W6.4 kmh W 4.1 mph6.6 kmh 30.36 in1028.1 mb 0.00 in0.0 mm 0.00 in0.0 mm 0.00 in0.0 mm
11:33 AM 37.9°F3.3°C 39.7°F4.3°C 87% 3.2 mph NNW5.1 kmh NNW 3.2 mph5.1 kmh 30.36 in1028.1 mb 0.00 in0.0 mm 0.00 in0.0 mm 0.00 in0.0 mm
11:36 AM 37.7°F3.2°C 39.5°F4.2°C 86% 2.4 mph W3.9 kmh W 2.4 mph3.9 kmh 30.35 in1027.8 mb 0.00 in0.0 mm 0.00 in0.0 mm 0.00 in0.0 mm
11:39 AM 37.9°F3.3°C 39.9°F4.4°C 87% 0.4 mph W0.6 kmh W 0.4 mph0.6 kmh 30.35 in1027.8 mb 0.00 in0.0 mm 0.00 in0.0 mm 0.00 in0.0 mm
11:42 AM 37.9°F3.3°C 39.3°F4.1°C 86% 2.8 mph W4.5 kmh W 2.8 mph4.5 kmh 30.35 in1027.8 mb 0.00 in0.0 mm 0.00 in0.0 mm 0.00 in0.0 mm
11:45 AM 37.9°F3.3°C 39.6°F4.2°C 87% 0.8 mph WNW1.3 kmh WNW 0.8 mph1.3 kmh 30.36 in1028.1 mb 0.00 in0.0 mm 0.00 in0.0 mm 0.00 in0.0 mm
11:48 AM 37.7°F3.2°C 39.7°F4.3°C 87% 6.8 mph W10.9 kmh W 6.8 mph10.9 kmh 30.35 in1027.8 mb 0.00 in0.0 mm 0.00 in0.0 mm 0.00 in0.0 mm
11:51 AM 37.9°F3.3°C 39.7°F4.3°C 86% 2.4 mph NNW3.9 kmh NNW 2.4 mph3.9 kmh 30.35 in1027.8 mb 0.00 in0.0 mm 0.00 in0.0 mm 0.00 in0.0 mm
11:54 AM 37.7°F3.2°C 39.5°F4.2°C 86% 6.0 mph NNW9.7 kmh NNW 6.1 mph9.8 kmh 30.35 in1027.8 mb 0.00 in0.0 mm 0.00 in0.0 mm 0.00 in0.0 mm
11:57 AM 37.9°F3.3°C 39.9°F4.4°C 87% 3.6 mph NNW5.8 kmh NNW 3.6 mph5.8 kmh 30.35 in1027.8 mb 0.00 in0.0 mm 0.00 in0.0 mm 0.00 in0.0 mm
12:00 PM 37.9°F3.3°C 39.8°F4.3°C 87% 2.0 mph W3.2 kmh W 2.0 mph3.2 kmh 30.35 in1027.8 mb 0.00 in0.0 mm 0.00 in0.0 mm 0.00 in0.0 mm
12:03 PM 37.9°F3.3°C 39.8°F4.3°C 87% 4.0 mph NNW6.4 kmh NNW 4.1 mph6.6 kmh 30.35 in1027.8 mb 0.00 in0.0 mm 0.00 in0.0 mm 0.00 in0.0 mm
12:06 PM 37.9°F3.3°C 39.6°F4.2°C 86% 3.6 mph NNW5.8 kmh NNW 3.7 mph6.0 kmh 30.35 in1027.8 mb 0.00 in0.0 mm 0.00 in0.0 mm 0.00 in0.0 mm
12:09 PM 37.9°F3.3°C 39.8°F4.3°C 86% 3.2 mph WNW5.1 kmh WNW 3.3 mph5.3 kmh 30.35 in1027.8 mb 0.00 in0.0 mm 0.00 in0.0 mm 0.00 in0.0 mm
12:12 PM 37.7°F3.2°C 39.8°F4.3°C 86% 2.0 mph NW3.2 kmh NW 2.0 mph3.2 kmh 30.35 in1027.8 mb 0.00 in0.0 mm 0.00 in0.0 mm 0.00 in0.0 mm
12:15 PM 38.0°F3.3°C 39.6°F4.2°C 87% 1.6 mph W2.6 kmh W 1.6 mph2.6 kmh 30.35 in1027.8 mb 0.00 in0.0 mm 0.00 in0.0 mm 0.00 in0.0 mm
12:18 PM 37.9°F3.3°C 39.9°F4.4°C 87% 2.0 mph WNW3.2 kmh WNW 2.0 mph3.2 kmh 30.35 in1027.8 mb 0.00 in0.0 mm 0.00 in0.0 mm 0.00 in0.0 mm
12:21 PM 38.0°F3.3°C 39.8°F4.3°C 86% 2.0 mph NNW3.2 kmh NNW 2.0 mph3.2 kmh 30.35 in1027.8 mb 0.00 in0.0 mm 0.00 in0.0 mm 0.00 in0.0 mm
12:24 PM 38.1°F3.4°C 39.7°F4.3°C 86% 1.6 mph W2.6 kmh W 1.6 mph2.6 kmh 30.35 in1027.8 mb 0.00 in0.0 mm 0.00 in0.0 mm 0.00 in0.0 mm
12:27 PM 38.1°F3.4°C 40.0°F4.4°C 86% 4.0 mph WNW6.4 kmh WNW 4.1 mph6.6 kmh 30.35 in1027.8 mb 0.00 in0.0 mm 0.00 in0.0 mm 0.00 in0.0 mm
12:30 PM 38.1°F3.4°C 39.7°F4.3°C 86% 5.2 mph W8.4 kmh W 5.3 mph8.5 kmh 30.35 in1027.8 mb 0.00 in0.0 mm 0.00 in0.0 mm 0.00 in0.0 mm
12:33 PM 38.1°F3.4°C 39.9°F4.4°C 86% 1.6 mph NW2.6 kmh NW 1.6 mph2.6 kmh 30.35 in1027.8 mb 0.00 in0.0 mm 0.00 in0.0 mm 0.00 in0.0 mm
12:36 PM 38.1°F3.4°C 39.9°F4.4°C 86% 1.6 mph W2.6 kmh W 1.6 mph2.6 kmh 30.35 in1027.8 mb 0.00 in0.0 mm 0.00 in0.0 mm 0.00 in0.0 mm
12:39 PM 38.1°F3.4°C 39.9°F4.4°C 86% 1.2 mph W1.9 kmh W 1.2 mph1.9 kmh 30.35 in1027.8 mb 0.00 in0.0 mm 0.00 in0.0 mm 0.00 in0.0 mm
12:42 PM 38.1°F3.4°C 39.9°F4.4°C 86% 3.2 mph WSW5.1 kmh WSW 3.2 mph5.1 kmh 30.35 in1027.8 mb 0.00 in0.0 mm 0.00 in0.0 mm 0.00 in0.0 mm
12:45 PM 38.1°F3.4°C 39.8°F4.3°C 86% 1.6 mph NW2.6 kmh NW 1.6 mph2.6 kmh 30.34 in1027.4 mb 0.00 in0.0 mm 0.00 in0.0 mm 0.00 in0.0 mm
12:48 PM 38.1°F3.4°C 39.6°F4.2°C 85% 6.1 mph W9.8 kmh W 6.1 mph9.8 kmh 30.35 in1027.8 mb 0.00 in0.0 mm 0.00 in0.0 mm 0.00 in0.0 mm
12:51 PM 38.2°F3.4°C 39.9°F4.4°C 86% 6.9 mph WSW11.1 kmh WSW 6.9 mph11.1 kmh 30.34 in1027.4 mb 0.00 in0.0 mm 0.00 in0.0 mm 0.00 in0.0 mm
12:54 PM 38.2°F3.4°C 39.6°F4.2°C 85% 4.4 mph W7.1 kmh W 4.5 mph7.2 kmh 30.35 in1027.8 mb 0.00 in0.0 mm 0.00 in0.0 mm 0.00 in0.0 mm
12:57 PM 38.2°F3.4°C 39.9°F4.4°C 86% 2.4 mph W3.9 kmh W 2.4 mph3.9 kmh 30.34 in1027.4 mb 0.00 in0.0 mm 0.00 in0.0 mm 0.00 in0.0 mm
01:00 PM 38.1°F3.4°C 39.7°F4.3°C 86% 0.8 mph WSW1.3 kmh WSW 0.8 mph1.3 kmh 30.34 in1027.4 mb 0.00 in0.0 mm 0.00 in0.0 mm 0.00 in0.0 mm
01:03 PM 38.1°F3.4°C 39.9°F4.4°C 86% 2.0 mph NNW3.2 kmh NNW 2.0 mph3.2 kmh 30.34 in1027.4 mb 0.00 in0.0 mm 0.00 in0.0 mm 0.00 in0.0 mm
01:06 PM 38.2°F3.4°C 39.9°F4.4°C 86% 3.2 mph W5.1 kmh W 3.3 mph5.3 kmh 30.34 in1027.4 mb 0.00 in0.0 mm 0.00 in0.0 mm 0.00 in0.0 mm
01:09 PM 38.2°F3.4°C 39.9°F4.4°C 86% Calm Calm -- 30.34 in1027.4 mb 0.00 in0.0 mm 0.00 in0.0 mm 0.00 in0.0 mm
01:12 PM 38.2°F3.4°C 39.8°F4.3°C 85% 2.0 mph NNW3.2 kmh NNW 2.0 mph3.2 kmh 30.34 in1027.4 mb 0.00 in0.0 mm 0.00 in0.0 mm 0.00 in0.0 mm
01:15 PM 38.2°F3.4°C 40.0°F4.4°C 86% 1.2 mph W1.9 kmh W 1.2 mph1.9 kmh 30.34 in1027.4 mb 0.00 in0.0 mm 0.00 in0.0 mm 0.00 in0.0 mm
01:18 PM 38.3°F3.5°C 39.9°F4.4°C 85% 2.0 mph W3.2 kmh W 2.0 mph3.2 kmh 30.34 in1027.4 mb 0.00 in0.0 mm 0.00 in0.0 mm 0.00 in0.0 mm
01:21 PM 38.2°F3.4°C 39.9°F4.4°C 86% 6.9 mph WNW11.1 kmh WNW 6.9 mph11.1 kmh 30.34 in1027.4 mb 0.00 in0.0 mm 0.00 in0.0 mm 0.00 in0.0 mm
01:24 PM 38.2°F3.4°C 39.8°F4.3°C 86% 6.0 mph NW9.7 kmh NW 6.0 mph9.7 kmh 30.34 in1027.4 mb 0.00 in0.0 mm 0.00 in0.0 mm 0.00 in0.0 mm
01:27 PM 38.2°F3.4°C 39.9°F4.4°C 85% 2.8 mph WNW4.5 kmh WNW 2.8 mph4.5 kmh 30.34 in1027.4 mb 0.00 in0.0 mm 0.00 in0.0 mm 0.00 in0.0 mm
01:30 PM 38.2°F3.4°C 39.9°F4.4°C 86% 2.8 mph NNW4.5 kmh NNW 2.9 mph4.7 kmh 30.34 in1027.4 mb 0.00 in0.0 mm 0.00 in0.0 mm 0.00 in0.0 mm
01:33 PM 38.2°F3.4°C 40.0°F4.4°C 85% 0.4 mph W0.6 kmh W 0.4 mph0.6 kmh 30.33 in1027.1 mb 0.00 in0.0 mm 0.00 in0.0 mm 0.00 in0.0 mm
01:36 PM 38.2°F3.4°C 39.6°F4.2°C 84% 3.6 mph W5.8 kmh W 3.6 mph5.8 kmh 30.33 in1027.1 mb 0.00 in0.0 mm 0.00 in0.0 mm 0.00 in0.0 mm
01:39 PM 38.3°F3.5°C 39.9°F4.4°C 85% 6.8 mph W10.9 kmh W 6.8 mph10.9 kmh 30.33 in1027.1 mb 0.00 in0.0 mm 0.00 in0.0 mm 0.00 in0.0 mm
01:42 PM 38.3°F3.5°C 39.9°F4.4°C 85% 3.6 mph WSW5.8 kmh WSW 3.6 mph5.8 kmh 30.33 in1027.1 mb 0.00 in0.0 mm 0.00 in0.0 mm 0.00 in0.0 mm
01:45 PM 38.3°F3.5°C 39.9°F4.4°C 85% 4.0 mph W6.4 kmh W 4.1 mph6.6 kmh 30.33 in1027.1 mb 0.00 in0.0 mm 0.00 in0.0 mm 0.00 in0.0 mm
01:48 PM 38.3°F3.5°C 40.1°F4.5°C 86% 4.4 mph W7.1 kmh W 4.4 mph7.1 kmh 30.33 in1027.1 mb 0.00 in0.0 mm 0.00 in0.0 mm 0.00 in0.0 mm
01:51 PM 38.3°F3.5°C 40.1°F4.5°C 85% 4.0 mph WNW6.4 kmh WNW 4.0 mph6.4 kmh 30.33 in1027.1 mb 0.00 in0.0 mm 0.00 in0.0 mm 0.00 in0.0 mm
01:54 PM 38.3°F3.5°C 40.0°F4.4°C 85% 4.4 mph W7.1 kmh W 4.5 mph7.2 kmh 30.33 in1027.1 mb 0.00 in0.0 mm 0.00 in0.0 mm 0.00 in0.0 mm
01:57 PM 38.3°F3.5°C 40.0°F4.4°C 86% 4.0 mph W6.4 kmh W 4.0 mph6.4 kmh 30.33 in1027.1 mb 0.00 in0.0 mm 0.00 in0.0 mm 0.00 in0.0 mm
02:00 PM 38.3°F3.5°C 40.1°F4.5°C 86% 1.2 mph W1.9 kmh W 1.2 mph1.9 kmh 30.33 in1027.1 mb 0.00 in0.0 mm 0.00 in0.0 mm 0.00 in0.0 mm
02:03 PM 38.3°F3.5°C 40.1°F4.5°C 85% 3.2 mph WNW5.1 kmh WNW 3.3 mph5.3 kmh 30.33 in1027.1 mb 0.00 in0.0 mm 0.00 in0.0 mm 0.00 in0.0 mm
02:06 PM 38.3°F3.5°C 40.2°F4.6°C 85% 6.5 mph NNW10.5 kmh NNW 6.5 mph10.5 kmh 30.33 in1027.1 mb 0.00 in0.0 mm 0.00 in0.0 mm 0.00 in0.0 mm
02:09 PM 38.3°F3.5°C 40.2°F4.6°C 85% 2.8 mph NNW4.5 kmh NNW 2.9 mph4.7 kmh 30.33 in1027.1 mb 0.00 in0.0 mm 0.00 in0.0 mm 0.00 in0.0 mm
02:12 PM 38.3°F3.5°C 40.2°F4.6°C 86% 0.4 mph WNW0.6 kmh WNW 0.4 mph0.6 kmh 30.33 in1027.1 mb 0.00 in0.0 mm 0.00 in0.0 mm 0.00 in0.0 mm
02:15 PM 38.3°F3.5°C 40.3°F4.6°C 86% 1.6 mph W2.6 kmh W 1.6 mph2.6 kmh 30.32 in1026.8 mb 0.00 in0.0 mm 0.00 in0.0 mm 0.00 in0.0 mm
02:18 PM 38.4°F3.6°C 39.9°F4.4°C 85% 2.4 mph NNW3.9 kmh NNW 2.4 mph3.9 kmh 30.33 in1027.1 mb 0.00 in0.0 mm 0.00 in0.0 mm 0.00 in0.0 mm
02:21 PM 38.3°F3.5°C 40.3°F4.6°C 85% 3.9 mph WNW6.3 kmh WNW 3.9 mph6.3 kmh 30.32 in1026.8 mb 0.00 in0.0 mm 0.00 in0.0 mm 0.00 in0.0 mm
02:24 PM 38.3°F3.5°C 40.2°F4.6°C 85% Calm Calm -- 30.32 in1026.8 mb 0.00 in0.0 mm 0.00 in0.0 mm 0.00 in0.0 mm
02:27 PM 38.3°F3.5°C 40.3°F4.6°C 85% 3.6 mph NNW5.8 kmh NNW 3.7 mph6.0 kmh 30.32 in1026.8 mb 0.00 in0.0 mm 0.00 in0.0 mm 0.00 in0.0 mm
02:30 PM 38.3°F3.5°C 40.2°F4.6°C 85% 2.4 mph W3.9 kmh W 2.4 mph3.9 kmh 30.32 in1026.8 mb 0.00 in0.0 mm 0.00 in0.0 mm 0.00 in0.0 mm
02:33 PM 38.4°F3.6°C 40.0°F4.4°C 85% 6.1 mph W9.8 kmh W 6.1 mph9.8 kmh 30.32 in1026.8 mb 0.00 in0.0 mm 0.00 in0.0 mm 0.00 in0.0 mm
02:36 PM 38.3°F3.5°C 40.1°F4.5°C 85% 7.2 mph NW11.6 kmh NW 7.3 mph11.7 kmh 30.32 in1026.8 mb 0.00 in0.0 mm 0.00 in0.0 mm 0.00 in0.0 mm
02:39 PM 38.4°F3.6°C 40.3°F4.6°C 85% 4.4 mph WNW7.1 kmh WNW 4.4 mph7.1 kmh 30.32 in1026.8 mb 0.00 in0.0 mm 0.00 in0.0 mm 0.00 in0.0 mm
02:42 PM 38.4°F3.6°C 40.1°F4.5°C 85% 3.6 mph WNW5.8 kmh WNW 3.7 mph6.0 kmh 30.32 in1026.8 mb 0.00 in0.0 mm 0.00 in0.0 mm 0.00 in0.0 mm
02:45 PM 38.4°F3.6°C 40.0°F4.4°C 85% 0.4 mph WNW0.6 kmh WNW 0.4 mph0.6 kmh 30.32 in1026.8 mb 0.00 in0.0 mm 0.00 in0.0 mm 0.00 in0.0 mm
02:48 PM 38.3°F3.5°C 40.1°F4.5°C 85% 2.4 mph W3.9 kmh W 2.4 mph3.9 kmh 30.32 in1026.8 mb 0.00 in0.0 mm 0.00 in0.0 mm 0.00 in0.0 mm
02:51 PM 38.3°F3.5°C 40.2°F4.6°C 85% 2.0 mph NW3.2 kmh NW 2.0 mph3.2 kmh 30.32 in1026.8 mb 0.00 in0.0 mm 0.00 in0.0 mm 0.00 in0.0 mm
02:54 PM 38.3°F3.5°C 40.2°F4.6°C 85% 3.2 mph W5.1 kmh W 3.3 mph5.3 kmh 30.32 in1026.8 mb 0.00 in0.0 mm 0.00 in0.0 mm 0.00 in0.0 mm
02:57 PM 38.3°F3.5°C 40.4°F4.7°C 85% 4.0 mph W6.4 kmh W 4.1 mph6.6 kmh 30.32 in1026.8 mb 0.00 in0.0 mm 0.00 in0.0 mm 0.00 in0.0 mm
03:00 PM 38.3°F3.5°C 40.5°F4.7°C 85% 2.4 mph NNW3.9 kmh NNW 2.4 mph3.9 kmh 30.32 in1026.8 mb 0.00 in0.0 mm 0.00 in0.0 mm 0.00 in0.0 mm
03:03 PM 38.2°F3.4°C 40.0°F4.4°C 84% 2.0 mph NNW3.2 kmh NNW 2.0 mph3.2 kmh 30.33 in1027.1 mb 0.00 in0.0 mm 0.00 in0.0 mm 0.00 in0.0 mm
03:06 PM 38.2°F3.4°C 40.4°F4.7°C 86% 2.4 mph W3.9 kmh W 2.4 mph3.9 kmh 30.32 in1026.8 mb 0.00 in0.0 mm 0.00 in0.0 mm 0.00 in0.0 mm
03:09 PM 38.2°F3.4°C 40.3°F4.6°C 85% 3.2 mph W5.1 kmh W 3.2 mph5.1 kmh 30.32 in1026.8 mb 0.00 in0.0 mm 0.00 in0.0 mm 0.00 in0.0 mm
03:12 PM 38.2°F3.4°C 40.1°F4.5°C 85% 4.0 mph WSW6.4 kmh WSW 4.0 mph6.4 kmh 30.32 in1026.8 mb 0.00 in0.0 mm 0.00 in0.0 mm 0.00 in0.0 mm
03:15 PM 38.2°F3.4°C 40.2°F4.6°C 85% 5.2 mph W8.4 kmh W 5.3 mph8.5 kmh 30.32 in1026.8 mb 0.00 in0.0 mm 0.00 in0.0 mm 0.00 in0.0 mm
03:18 PM 38.2°F3.4°C 40.1°F4.5°C 85% 3.2 mph NNW5.1 kmh NNW 3.2 mph5.1 kmh 30.32 in1026.8 mb 0.00 in0.0 mm 0.00 in0.0 mm 0.00 in0.0 mm
03:21 PM 38.2°F3.4°C 40.3°F4.6°C 85% 2.8 mph W4.5 kmh W 2.8 mph4.5 kmh 30.32 in1026.8 mb 0.00 in0.0 mm 0.00 in0.0 mm 0.00 in0.0 mm
03:24 PM 38.1°F3.4°C 40.1°F4.5°C 85% 4.0 mph NNW6.4 kmh NNW 4.1 mph6.6 kmh 30.32 in1026.8 mb 0.00 in0.0 mm 0.00 in0.0 mm 0.00 in0.0 mm
03:27 PM 38.2°F3.4°C 40.5°F4.7°C 85% 4.4 mph WNW7.1 kmh WNW 4.4 mph7.1 kmh 30.32 in1026.8 mb 0.00 in0.0 mm 0.00 in0.0 mm 0.00 in0.0 mm
03:30 PM 38.2°F3.4°C 40.4°F4.7°C 86% 2.8 mph W4.5 kmh W 2.8 mph4.5 kmh 30.32 in1026.8 mb 0.00 in0.0 mm 0.00 in0.0 mm 0.00 in0.0 mm
03:33 PM 38.1°F3.4°C 40.5°F4.7°C 85% 1.6 mph W2.6 kmh W 1.6 mph2.6 kmh 30.32 in1026.8 mb 0.00 in0.0 mm 0.00 in0.0 mm 0.00 in0.0 mm
03:39 PM 38.1°F3.4°C 40.3°F4.6°C 85% 1.6 mph W2.6 kmh W 1.6 mph2.6 kmh 30.32 in1026.8 mb 0.00 in0.0 mm 0.00 in0.0 mm 0.00 in0.0 mm
03:42 PM 38.1°F3.4°C 40.2°F4.6°C 85% 2.0 mph W3.2 kmh W 2.0 mph3.2 kmh 30.32 in1026.8 mb 0.00 in0.0 mm 0.00 in0.0 mm 0.00 in0.0 mm
03:45 PM 38.0°F3.3°C 40.3°F4.6°C 85% 2.8 mph W4.5 kmh W 2.8 mph4.5 kmh 30.33 in1027.1 mb 0.00 in0.0 mm 0.00 in0.0 mm 0.00 in0.0 mm
03:48 PM 38.0°F3.3°C 40.4°F4.7°C 85% 4.8 mph W7.7 kmh W 4.9 mph7.9 kmh 30.32 in1026.8 mb 0.00 in0.0 mm 0.00 in0.0 mm 0.00 in0.0 mm
03:54 PM 38.0°F3.3°C 40.3°F4.6°C 85% 1.2 mph WNW1.9 kmh WNW 1.2 mph1.9 kmh 30.32 in1026.8 mb 0.00 in0.0 mm 0.00 in0.0 mm 0.00 in0.0 mm
04:00 PM 38.0°F3.3°C 40.4°F4.7°C 86% 5.7 mph W9.2 kmh W 5.7 mph9.2 kmh 30.32 in1026.8 mb 0.00 in0.0 mm 0.00 in0.0 mm 0.00 in0.0 mm
04:03 PM 38.0°F3.3°C 40.2°F4.6°C 85% 2.8 mph NW4.5 kmh NW 2.8 mph4.5 kmh 30.32 in1026.8 mb 0.00 in0.0 mm 0.00 in0.0 mm 0.00 in0.0 mm
04:06 PM 37.9°F3.3°C 40.3°F4.6°C 86% 4.8 mph W7.7 kmh W 4.9 mph7.9 kmh 30.32 in1026.8 mb 0.00 in0.0 mm 0.00 in0.0 mm 0.00 in0.0 mm
04:09 PM 37.9°F3.3°C 39.8°F4.3°C 85% 4.4 mph WSW7.1 kmh WSW 4.5 mph7.2 kmh 30.32 in1026.8 mb 0.00 in0.0 mm 0.00 in0.0 mm 0.00 in0.0 mm
04:12 PM 37.7°F3.2°C 39.9°F4.4°C 85% 2.8 mph W4.5 kmh W 2.9 mph4.7 kmh 30.32 in1026.8 mb 0.00 in0.0 mm 0.00 in0.0 mm 0.00 in0.0 mm
04:15 PM 37.7°F3.2°C 40.2°F4.6°C 86% 1.6 mph WNW2.6 kmh WNW 1.6 mph2.6 kmh 30.32 in1026.8 mb 0.00 in0.0 mm 0.00 in0.0 mm 0.00 in0.0 mm
04:18 PM 37.7°F3.2°C 40.4°F4.7°C 86% 3.2 mph NNW5.1 kmh NNW 3.3 mph5.3 kmh 30.32 in1026.8 mb 0.00 in0.0 mm 0.00 in0.0 mm 0.00 in0.0 mm
04:21 PM 37.7°F3.2°C 40.4°F4.7°C 86% 5.6 mph WNW9.0 kmh WNW 5.6 mph9.0 kmh 30.32 in1026.8 mb 0.00 in0.0 mm 0.00 in0.0 mm 0.00 in0.0 mm
04:24 PM 37.7°F3.2°C 40.3°F4.6°C 86% 3.2 mph W5.1 kmh W 3.3 mph5.3 kmh 30.32 in1026.8 mb 0.00 in0.0 mm 0.00 in0.0 mm 0.00 in0.0 mm
04:27 PM 37.7°F3.2°C 40.1°F4.5°C 86% 3.2 mph WSW5.1 kmh WSW 3.3 mph5.3 kmh 30.32 in1026.8 mb 0.00 in0.0 mm 0.00 in0.0 mm 0.00 in0.0 mm
04:30 PM 37.6°F3.1°C 39.8°F4.3°C 85% 4.0 mph W6.4 kmh W 4.1 mph6.6 kmh 30.32 in1026.8 mb 0.00 in0.0 mm 0.00 in0.0 mm 0.00 in0.0 mm
04:33 PM 37.6°F3.1°C 40.1°F4.5°C 86% 0.8 mph NNW1.3 kmh NNW 0.8 mph1.3 kmh 30.32 in1026.8 mb 0.00 in0.0 mm 0.00 in0.0 mm 0.00 in0.0 mm
04:36 PM 37.6°F3.1°C 40.4°F4.7°C 86% 2.4 mph NNW3.9 kmh NNW 2.4 mph3.9 kmh 30.32 in1026.8 mb 0.00 in0.0 mm 0.00 in0.0 mm 0.00 in0.0 mm
04:39 PM 37.6°F3.1°C 40.3°F4.6°C 86% 2.8 mph W4.5 kmh W 2.9 mph4.7 kmh 30.32 in1026.8 mb 0.00 in0.0 mm 0.00 in0.0 mm 0.00 in0.0 mm
04:42 PM 37.6°F3.1°C 40.2°F4.6°C 86% 1.6 mph W2.6 kmh W 1.6 mph2.6 kmh 30.32 in1026.8 mb 0.00 in0.0 mm 0.00 in0.0 mm 0.00 in0.0 mm
04:45 PM 37.6°F3.1°C 39.9°F4.4°C 85% 3.2 mph W5.1 kmh W 3.3 mph5.3 kmh 30.32 in1026.8 mb 0.00 in0.0 mm 0.00 in0.0 mm 0.00 in0.0 mm
04:48 PM 37.7°F3.2°C 40.0°F4.4°C 86% 4.4 mph WSW7.1 kmh WSW 4.5 mph7.2 kmh 30.32 in1026.8 mb 0.00 in0.0 mm 0.00 in0.0 mm 0.00 in0.0 mm
04:51 PM 37.6°F3.1°C 40.3°F4.6°C 86% 4.4 mph NNW7.1 kmh NNW 4.4 mph7.1 kmh 30.32 in1026.8 mb 0.00 in0.0 mm 0.00 in0.0 mm 0.00 in0.0 mm
04:54 PM 37.6°F3.1°C 40.1°F4.5°C 86% 4.4 mph W7.1 kmh W 4.4 mph7.1 kmh 30.32 in1026.8 mb 0.00 in0.0 mm 0.00 in0.0 mm 0.00 in0.0 mm
04:57 PM 37.6°F3.1°C 39.9°F4.4°C 86% 3.6 mph WSW5.8 kmh WSW 3.7 mph6.0 kmh 30.32 in1026.8 mb 0.00 in0.0 mm 0.00 in0.0 mm 0.00 in0.0 mm
05:00 PM 37.6°F3.1°C 40.2°F4.6°C 86% 4.9 mph WNW7.9 kmh WNW 4.9 mph7.9 kmh 30.32 in1026.8 mb 0.00 in0.0 mm 0.00 in0.0 mm 0.00 in0.0 mm
05:03 PM 37.5°F3.1°C 39.8°F4.3°C 85% 0.4 mph WSW0.6 kmh WSW 0.4 mph0.6 kmh 30.32 in1026.8 mb 0.00 in0.0 mm 0.00 in0.0 mm 0.00 in0.0 mm
05:06 PM 37.5°F3.1°C 40.2°F4.6°C 86% 4.0 mph WSW6.4 kmh WSW 4.1 mph6.6 kmh 30.32 in1026.8 mb 0.00 in0.0 mm 0.00 in0.0 mm 0.00 in0.0 mm
05:09 PM 37.5°F3.1°C 40.1°F4.5°C 86% 4.5 mph W7.2 kmh W 4.5 mph7.2 kmh 30.32 in1026.8 mb 0.00 in0.0 mm 0.00 in0.0 mm 0.00 in0.0 mm
05:12 PM 37.4°F3.0°C 40.3°F4.6°C 86% 0.8 mph WNW1.3 kmh WNW 0.8 mph1.3 kmh 30.32 in1026.8 mb 0.00 in0.0 mm 0.00 in0.0 mm 0.00 in0.0 mm
05:15 PM 37.7°F3.2°C 40.4°F4.7°C 86% 7.3 mph W11.7 kmh W 7.3 mph11.7 kmh 30.32 in1026.8 mb 0.00 in0.0 mm 0.00 in0.0 mm 0.00 in0.0 mm
05:18 PM 37.6°F3.1°C 40.0°F4.4°C 86% 0.8 mph W1.3 kmh W 0.8 mph1.3 kmh 30.32 in1026.8 mb 0.00 in0.0 mm 0.00 in0.0 mm 0.00 in0.0 mm
05:21 PM 37.5°F3.1°C 40.4°F4.7°C 86% 2.4 mph W3.9 kmh W 2.4 mph3.9 kmh 30.32 in1026.8 mb 0.00 in0.0 mm 0.00 in0.0 mm 0.00 in0.0 mm
05:24 PM 37.5°F3.1°C 39.8°F4.3°C 85% 4.4 mph WSW7.1 kmh WSW 4.5 mph7.2 kmh 30.32 in1026.8 mb 0.00 in0.0 mm 0.00 in0.0 mm 0.00 in0.0 mm
05:27 PM 37.5°F3.1°C 40.2°F4.6°C 86% 2.0 mph WSW3.2 kmh WSW 2.0 mph3.2 kmh 30.32 in1026.8 mb 0.00 in0.0 mm 0.00 in0.0 mm 0.00 in0.0 mm
05:30 PM 37.5°F3.1°C 40.2°F4.6°C 86% 4.0 mph NNW6.4 kmh NNW 4.0 mph6.4 kmh 30.32 in1026.8 mb 0.00 in0.0 mm 0.00 in0.0 mm 0.00 in0.0 mm
05:33 PM 37.5°F3.1°C 40.0°F4.4°C 85% 7.3 mph W11.7 kmh W 7.3 mph11.7 kmh 30.32 in1026.8 mb 0.00 in0.0 mm 0.00 in0.0 mm 0.00 in0.0 mm
05:36 PM 37.6°F3.1°C 40.2°F4.6°C 86% 3.6 mph NNW5.8 kmh NNW 3.7 mph6.0 kmh 30.32 in1026.8 mb 0.00 in0.0 mm 0.00 in0.0 mm 0.00 in0.0 mm
05:39 PM 37.6°F3.1°C 40.2°F4.6°C 86% 3.2 mph W5.1 kmh W 3.3 mph5.3 kmh 30.32 in1026.8 mb 0.00 in0.0 mm 0.00 in0.0 mm 0.00 in0.0 mm
05:42 PM 37.5°F3.1°C 40.1°F4.5°C 86% 2.0 mph W3.2 kmh W 2.0 mph3.2 kmh 30.32 in1026.8 mb 0.00 in0.0 mm 0.00 in0.0 mm 0.00 in0.0 mm
05:45 PM 37.4°F3.0°C 40.1°F4.5°C 86% 2.8 mph W4.5 kmh W 2.8 mph4.5 kmh 30.32 in1026.8 mb 0.00 in0.0 mm 0.00 in0.0 mm 0.00 in0.0 mm
05:48 PM 37.5°F3.1°C 40.3°F4.6°C 86% 2.0 mph W3.2 kmh W 2.0 mph3.2 kmh 30.32 in1026.8 mb 0.00 in0.0 mm 0.00 in0.0 mm 0.00 in0.0 mm
05:51 PM 37.5°F3.1°C 40.2°F4.6°C 86% 2.8 mph W4.5 kmh W 2.8 mph4.5 kmh 30.32 in1026.8 mb 0.00 in0.0 mm 0.00 in0.0 mm 0.00 in0.0 mm
05:54 PM 37.5°F3.1°C 40.1°F4.5°C 86% 4.0 mph W6.4 kmh W 4.1 mph6.6 kmh 30.32 in1026.8 mb 0.00 in0.0 mm 0.00 in0.0 mm 0.00 in0.0 mm
05:57 PM 37.5°F3.1°C 40.2°F4.6°C 86% 2.8 mph W4.5 kmh W 2.8 mph4.5 kmh 30.32 in1026.8 mb 0.00 in0.0 mm 0.00 in0.0 mm 0.00 in0.0 mm
06:00 PM 37.5°F3.1°C 40.1°F4.5°C 86% 5.6 mph W9.0 kmh W 5.7 mph9.2 kmh 30.32 in1026.8 mb 0.00 in0.0 mm 0.00 in0.0 mm 0.00 in0.0 mm
06:03 PM 37.5°F3.1°C 40.2°F4.6°C 86% 2.8 mph W4.5 kmh W 2.8 mph4.5 kmh 30.32 in1026.8 mb 0.00 in0.0 mm 0.00 in0.0 mm 0.00 in0.0 mm
06:06 PM 37.5°F3.1°C 39.9°F4.4°C 85% 6.0 mph W9.7 kmh W 6.1 mph9.8 kmh 30.32 in1026.8 mb 0.00 in0.0 mm 0.00 in0.0 mm 0.00 in0.0 mm
06:09 PM 37.5°F3.1°C 40.3°F4.6°C 86% 1.6 mph WSW2.6 kmh WSW 1.6 mph2.6 kmh 30.32 in1026.8 mb 0.00 in0.0 mm 0.00 in0.0 mm 0.00 in0.0 mm
06:12 PM 37.5°F3.1°C 40.1°F4.5°C 86% 5.2 mph NNW8.4 kmh NNW 5.2 mph8.4 kmh 30.32 in1026.8 mb 0.00 in0.0 mm 0.00 in0.0 mm 0.00 in0.0 mm
06:15 PM 37.4°F3.0°C 40.4°F4.7°C 86% 1.6 mph W2.6 kmh W 1.6 mph2.6 kmh 30.32 in1026.8 mb 0.00 in0.0 mm 0.00 in0.0 mm 0.00 in0.0 mm
06:18 PM 37.4°F3.0°C 40.2°F4.6°C 86% 4.0 mph W6.4 kmh W 4.0 mph6.4 kmh 30.32 in1026.8 mb 0.00 in0.0 mm 0.00 in0.0 mm 0.00 in0.0 mm
06:21 PM 37.5°F3.1°C 40.2°F4.6°C 86% 2.8 mph W4.5 kmh W 2.8 mph4.5 kmh 30.32 in1026.8 mb 0.00 in0.0 mm 0.00 in0.0 mm 0.00 in0.0 mm
06:24 PM 37.5°F3.1°C 40.1°F4.5°C 86% 2.0 mph WNW3.2 kmh WNW 2.0 mph3.2 kmh 30.32 in1026.8 mb 0.00 in0.0 mm 0.00 in0.0 mm 0.00 in0.0 mm
06:27 PM 37.5°F3.1°C 40.3°F4.6°C 86% 0.8 mph NW1.3 kmh NW 0.8 mph1.3 kmh 30.32 in1026.8 mb 0.00 in0.0 mm 0.00 in0.0 mm 0.00 in0.0 mm
06:30 PM 37.4°F3.0°C 40.0°F4.4°C 86% 3.6 mph W5.8 kmh W 3.7 mph6.0 kmh 30.32 in1026.8 mb 0.00 in0.0 mm 0.00 in0.0 mm 0.00 in0.0 mm
06:33 PM 37.4°F3.0°C 40.1°F4.5°C 85% Calm Calm -- 30.32 in1026.8 mb 0.00 in0.0 mm 0.00 in0.0 mm 0.00 in0.0 mm
06:36 PM 37.4°F3.0°C 40.2°F4.6°C 86% Calm Calm -- 30.32 in1026.8 mb 0.00 in0.0 mm 0.00 in0.0 mm 0.00 in0.0 mm
06:39 PM 37.4°F3.0°C 40.2°F4.6°C 86% 2.0 mph NNW3.2 kmh NNW 2.0 mph3.2 kmh 30.32 in1026.8 mb 0.00 in0.0 mm 0.00 in0.0 mm 0.00 in0.0 mm
06:42 PM 37.4°F3.0°C 40.2°F4.6°C 86% 0.4 mph NNW0.6 kmh NNW 0.4 mph0.6 kmh 30.32 in1026.8 mb 0.00 in0.0 mm 0.00 in0.0 mm 0.00 in0.0 mm
06:45 PM 37.4°F3.0°C 40.0°F4.4°C 86% 0.8 mph W1.3 kmh W 0.8 mph1.3 kmh 30.31 in1026.4 mb 0.00 in0.0 mm 0.00 in0.0 mm 0.00 in0.0 mm
06:48 PM 37.4°F3.0°C 40.3°F4.6°C 86% 1.2 mph W1.9 kmh W 1.2 mph1.9 kmh 30.32 in1026.8 mb 0.00 in0.0 mm 0.00 in0.0 mm 0.00 in0.0 mm
06:51 PM 37.5°F3.1°C 40.2°F4.6°C 86% 1.2 mph W1.9 kmh W 1.2 mph1.9 kmh 30.31 in1026.4 mb 0.00 in0.0 mm 0.00 in0.0 mm 0.00 in0.0 mm
06:54 PM 37.4°F3.0°C 40.3°F4.6°C 86% 2.8 mph W4.5 kmh W 2.9 mph4.7 kmh 30.31 in1026.4 mb 0.00 in0.0 mm 0.00 in0.0 mm 0.00 in0.0 mm
06:57 PM 37.4°F3.0°C 40.2°F4.6°C 86% 2.0 mph NNW3.2 kmh NNW 2.0 mph3.2 kmh 30.32 in1026.8 mb 0.00 in0.0 mm 0.00 in0.0 mm 0.00 in0.0 mm
07:00 PM 37.4°F3.0°C 40.1°F4.5°C 86% 0.4 mph NNW0.6 kmh NNW 0.4 mph0.6 kmh 30.31 in1026.4 mb 0.00 in0.0 mm 0.00 in0.0 mm 0.00 in0.0 mm
07:03 PM 37.4°F3.0°C 40.4°F4.7°C 86% Calm Calm -- 30.32 in1026.8 mb 0.00 in0.0 mm 0.00 in0.0 mm 0.00 in0.0 mm
07:06 PM 37.4°F3.0°C 40.3°F4.6°C 86% 1.2 mph WNW1.9 kmh WNW 1.2 mph1.9 kmh 30.32 in1026.8 mb 0.00 in0.0 mm 0.00 in0.0 mm 0.00 in0.0 mm
07:09 PM 37.5°F3.1°C 40.1°F4.5°C 86% 3.2 mph NNW5.1 kmh NNW 3.2 mph5.1 kmh 30.31 in1026.4 mb 0.00 in0.0 mm 0.00 in0.0 mm 0.00 in0.0 mm
07:12 PM 37.4°F3.0°C 40.1°F4.5°C 86% 1.6 mph W2.6 kmh W 1.6 mph2.6 kmh 30.31 in1026.4 mb 0.00 in0.0 mm 0.00 in0.0 mm 0.00 in0.0 mm
07:15 PM 37.4°F3.0°C 40.0°F4.4°C 86% 4.0 mph NNW6.4 kmh NNW 4.1 mph6.6 kmh 30.31 in1026.4 mb 0.00 in0.0 mm 0.00 in0.0 mm 0.00 in0.0 mm
07:18 PM 37.4°F3.0°C 40.2°F4.6°C 86% 2.8 mph WNW4.5 kmh WNW 2.8 mph4.5 kmh 30.31 in1026.4 mb 0.00 in0.0 mm 0.00 in0.0 mm 0.00 in0.0 mm
07:21 PM 37.4°F3.0°C 40.2°F4.6°C 86% 2.4 mph NNW3.9 kmh NNW 2.4 mph3.9 kmh 30.31 in1026.4 mb 0.00 in0.0 mm 0.00 in0.0 mm 0.00 in0.0 mm
07:24 PM 37.4°F3.0°C 39.9°F4.4°C 85% 1.6 mph NNW2.6 kmh NNW 1.6 mph2.6 kmh 30.31 in1026.4 mb 0.00 in0.0 mm 0.00 in0.0 mm 0.00 in0.0 mm
07:27 PM 37.4°F3.0°C 40.0°F4.4°C 86% 3.6 mph W5.8 kmh W 3.6 mph5.8 kmh 30.31 in1026.4 mb 0.00 in0.0 mm 0.00 in0.0 mm 0.00 in0.0 mm
07:30 PM 37.4°F3.0°C 40.3°F4.6°C 87% 2.4 mph WNW3.9 kmh WNW 2.4 mph3.9 kmh 30.31 in1026.4 mb 0.00 in0.0 mm 0.00 in0.0 mm 0.00 in0.0 mm
07:33 PM 37.4°F3.0°C 39.8°F4.3°C 85% 2.4 mph WSW3.9 kmh WSW 2.4 mph3.9 kmh 30.31 in1026.4 mb 0.00 in0.0 mm 0.00 in0.0 mm 0.00 in0.0 mm
07:36 PM 37.4°F3.0°C 40.2°F4.6°C 86% 1.6 mph W2.6 kmh W 1.6 mph2.6 kmh 30.31 in1026.4 mb 0.00 in0.0 mm 0.00 in0.0 mm 0.00 in0.0 mm
07:39 PM 37.4°F3.0°C 40.3°F4.6°C 86% Calm Calm -- 30.31 in1026.4 mb 0.00 in0.0 mm 0.00 in0.0 mm 0.00 in0.0 mm
07:42 PM 37.3°F2.9°C 40.2°F4.6°C 86% Calm Calm -- 30.31 in1026.4 mb 0.00 in0.0 mm 0.00 in0.0 mm 0.00 in0.0 mm
07:45 PM 37.3°F2.9°C 40.4°F4.7°C 87% Calm Calm -- 30.31 in1026.4 mb 0.00 in0.0 mm 0.00 in0.0 mm 0.00 in0.0 mm
07:51 PM 37.3°F2.9°C 40.1°F4.5°C 86% 0.8 mph NNW1.3 kmh NNW 0.8 mph1.3 kmh 30.31 in1026.4 mb 0.00 in0.0 mm 0.00 in0.0 mm 0.00 in0.0 mm
07:54 PM 37.3°F2.9°C 40.2°F4.6°C 86% 1.2 mph NW1.9 kmh NW 1.2 mph1.9 kmh 30.31 in1026.4 mb 0.00 in0.0 mm 0.00 in0.0 mm 0.00 in0.0 mm
07:57 PM 37.4°F3.0°C 40.0°F4.4°C 87% 3.6 mph NNW5.8 kmh NNW 3.7 mph6.0 kmh 30.31 in1026.4 mb 0.00 in0.0 mm 0.00 in0.0 mm 0.00 in0.0 mm
08:00 PM 37.4°F3.0°C 40.1°F4.5°C 86% 1.6 mph WNW2.6 kmh WNW 1.6 mph2.6 kmh 30.31 in1026.4 mb 0.00 in0.0 mm 0.00 in0.0 mm 0.00 in0.0 mm
08:03 PM 37.4°F3.0°C 40.2°F4.6°C 86% 0.4 mph W0.6 kmh W 0.4 mph0.6 kmh 30.31 in1026.4 mb 0.00 in0.0 mm 0.00 in0.0 mm 0.00 in0.0 mm
08:06 PM 37.3°F2.9°C 40.1°F4.5°C 86% 2.4 mph NNW3.9 kmh NNW 2.4 mph3.9 kmh 30.31 in1026.4 mb 0.00 in0.0 mm 0.00 in0.0 mm 0.00 in0.0 mm
08:09 PM 37.3°F2.9°C 40.0°F4.4°C 86% Calm Calm -- 30.30 in1026.1 mb 0.00 in0.0 mm 0.00 in0.0 mm 0.00 in0.0 mm
08:12 PM 37.3°F2.9°C 40.2°F4.6°C 87% Calm Calm -- 30.31 in1026.4 mb 0.00 in0.0 mm 0.00 in0.0 mm 0.00 in0.0 mm
08:15 PM 37.2°F2.9°C 40.2°F4.6°C 87% Calm Calm -- 30.31 in1026.4 mb 0.00 in0.0 mm 0.00 in0.0 mm 0.00 in0.0 mm
08:18 PM 37.3°F2.9°C 40.2°F4.6°C 86% 1.6 mph NNW2.6 kmh NNW 1.6 mph2.6 kmh 30.30 in1026.1 mb 0.00 in0.0 mm 0.00 in0.0 mm 0.00 in0.0 mm
08:21 PM 37.2°F2.9°C 40.2°F4.6°C 86% Calm Calm -- 30.30 in1026.1 mb 0.00 in0.0 mm 0.00 in0.0 mm 0.00 in0.0 mm
08:24 PM 37.3°F2.9°C 40.3°F4.6°C 87% 0.8 mph W1.3 kmh W 0.8 mph1.3 kmh 30.30 in1026.1 mb 0.00 in0.0 mm 0.00 in0.0 mm 0.00 in0.0 mm
08:27 PM 37.3°F2.9°C 40.2°F4.6°C 86% 2.0 mph WSW3.2 kmh WSW 2.0 mph3.2 kmh 30.30 in1026.1 mb 0.00 in0.0 mm 0.00 in0.0 mm 0.00 in0.0 mm
08:30 PM 37.3°F2.9°C 40.2°F4.6°C 87% 3.2 mph W5.1 kmh W 3.3 mph5.3 kmh 30.30 in1026.1 mb 0.00 in0.0 mm 0.00 in0.0 mm 0.00 in0.0 mm
08:33 PM 37.3°F2.9°C 40.1°F4.5°C 86% 4.0 mph WSW6.4 kmh WSW 4.0 mph6.4 kmh 30.30 in1026.1 mb 0.00 in0.0 mm 0.00 in0.0 mm 0.00 in0.0 mm
08:36 PM 37.2°F2.9°C 40.4°F4.7°C 87% 1.6 mph W2.6 kmh W 1.6 mph2.6 kmh 30.30 in1026.1 mb 0.00 in0.0 mm 0.00 in0.0 mm 0.00 in0.0 mm
08:39 PM 37.2°F2.9°C 40.1°F4.5°C 86% 3.6 mph WSW5.8 kmh WSW 3.6 mph5.8 kmh 30.30 in1026.1 mb 0.00 in0.0 mm 0.00 in0.0 mm 0.00 in0.0 mm
08:42 PM 37.3°F2.9°C 40.2°F4.6°C 86% 3.2 mph NW5.1 kmh NW 3.3 mph5.3 kmh 30.30 in1026.1 mb 0.00 in0.0 mm 0.00 in0.0 mm 0.00 in0.0 mm
08:45 PM 37.3°F2.9°C 40.4°F4.7°C 87% 2.8 mph NW4.5 kmh NW 2.8 mph4.5 kmh 30.30 in1026.1 mb 0.00 in0.0 mm 0.00 in0.0 mm 0.00 in0.0 mm
08:48 PM 37.3°F2.9°C 40.4°F4.7°C 87% 2.4 mph WNW3.9 kmh WNW 2.5 mph4.0 kmh 30.30 in1026.1 mb 0.00 in0.0 mm 0.00 in0.0 mm 0.00 in0.0 mm
08:51 PM 37.2°F2.9°C 40.1°F4.5°C 87% Calm Calm -- 30.30 in1026.1 mb 0.00 in0.0 mm 0.00 in0.0 mm 0.00 in0.0 mm
08:54 PM 37.2°F2.9°C 40.3°F4.6°C 87% 1.2 mph WNW1.9 kmh WNW 1.2 mph1.9 kmh 30.30 in1026.1 mb 0.00 in0.0 mm 0.00 in0.0 mm 0.00 in0.0 mm
08:57 PM 37.2°F2.9°C 40.3°F4.6°C 87% 5.3 mph W8.5 kmh W 5.3 mph8.5 kmh 30.30 in1026.1 mb 0.00 in0.0 mm 0.00 in0.0 mm 0.00 in0.0 mm
09:00 PM 37.3°F2.9°C 40.4°F4.7°C 87% 0.8 mph W1.3 kmh W 0.8 mph1.3 kmh 30.30 in1026.1 mb 0.00 in0.0 mm 0.00 in0.0 mm 0.00 in0.0 mm
09:03 PM 37.2°F2.9°C 40.2°F4.6°C 87% 0.4 mph WNW0.6 kmh WNW 0.4 mph0.6 kmh 30.30 in1026.1 mb 0.00 in0.0 mm 0.00 in0.0 mm 0.00 in0.0 mm
09:06 PM 37.2°F2.9°C 40.3°F4.6°C 87% 2.0 mph NNW3.2 kmh NNW 2.0 mph3.2 kmh 30.30 in1026.1 mb 0.00 in0.0 mm 0.00 in0.0 mm 0.00 in0.0 mm
09:09 PM 37.2°F2.9°C 40.2°F4.6°C 87% 3.6 mph W5.8 kmh W 3.6 mph5.8 kmh 30.30 in1026.1 mb 0.00 in0.0 mm 0.00 in0.0 mm 0.00 in0.0 mm
09:12 PM 37.1°F2.8°C 40.1°F4.5°C 87% Calm Calm -- 30.30 in1026.1 mb 0.00 in0.0 mm 0.00 in0.0 mm 0.00 in0.0 mm
09:15 PM 37.2°F2.9°C 40.3°F4.6°C 87% 2.8 mph W4.5 kmh W 2.9 mph4.7 kmh 30.30 in1026.1 mb 0.00 in0.0 mm 0.00 in0.0 mm 0.00 in0.0 mm
09:18 PM 37.2°F2.9°C 40.2°F4.6°C 87% 1.2 mph W1.9 kmh W 1.2 mph1.9 kmh 30.30 in1026.1 mb 0.00 in0.0 mm 0.00 in0.0 mm 0.00 in0.0 mm
09:21 PM 37.2°F2.9°C 40.1°F4.5°C 87% 2.4 mph NW3.9 kmh NW 2.4 mph3.9 kmh 30.30 in1026.1 mb 0.00 in0.0 mm 0.00 in0.0 mm 0.00 in0.0 mm
09:24 PM 37.2°F2.9°C 40.3°F4.6°C 87% 2.8 mph WNW4.5 kmh WNW 2.9 mph4.7 kmh 30.30 in1026.1 mb 0.00 in0.0 mm 0.00 in0.0 mm 0.00 in0.0 mm
09:27 PM 37.1°F2.8°C 40.4°F4.7°C 87% 0.8 mph W1.3 kmh W 0.8 mph1.3 kmh 30.30 in1026.1 mb 0.00 in0.0 mm 0.00 in0.0 mm 0.00 in0.0 mm
09:30 PM 37.1°F2.8°C 39.9°F4.4°C 87% 1.2 mph W1.9 kmh W 1.2 mph1.9 kmh 30.30 in1026.1 mb 0.00 in0.0 mm 0.00 in0.0 mm 0.00 in0.0 mm
09:33 PM 37.1°F2.8°C 40.2°F4.6°C 87% Calm Calm -- 30.30 in1026.1 mb 0.00 in0.0 mm 0.00 in0.0 mm 0.00 in0.0 mm
09:36 PM 37.1°F2.8°C 40.2°F4.6°C 87% 1.6 mph W2.6 kmh W 1.6 mph2.6 kmh 30.30 in1026.1 mb 0.00 in0.0 mm 0.00 in0.0 mm 0.00 in0.0 mm
09:39 PM 37.0°F2.8°C 39.7°F4.3°C 86% Calm Calm -- 30.30 in1026.1 mb 0.00 in0.0 mm 0.00 in0.0 mm 0.00 in0.0 mm
09:42 PM 37.2°F2.9°C 40.0°F4.4°C 87% 1.2 mph W1.9 kmh W 1.2 mph1.9 kmh 30.30 in1026.1 mb 0.00 in0.0 mm 0.00 in0.0 mm 0.00 in0.0 mm
09:45 PM 37.1°F2.8°C 40.2°F4.6°C 87% Calm Calm -- 30.30 in1026.1 mb 0.00 in0.0 mm 0.00 in0.0 mm 0.00 in0.0 mm
09:48 PM 37.1°F2.8°C 40.3°F4.6°C 87% Calm Calm -- 30.30 in1026.1 mb 0.00 in0.0 mm 0.00 in0.0 mm 0.00 in0.0 mm
09:54 PM 37.1°F2.8°C 39.8°F4.3°C 86% Calm Calm -- 30.30 in1026.1 mb 0.00 in0.0 mm 0.00 in0.0 mm 0.00 in0.0 mm
09:57 PM 37.1°F2.8°C 40.1°F4.5°C 87% Calm Calm -- 30.30 in1026.1 mb 0.00 in0.0 mm 0.00 in0.0 mm 0.00 in0.0 mm
10:00 PM 37.1°F2.8°C 40.2°F4.6°C 87% Calm Calm -- 30.30 in1026.1 mb 0.00 in0.0 mm 0.00 in0.0 mm 0.00 in0.0 mm
10:03 PM 37.0°F2.8°C 40.1°F4.5°C 87% Calm Calm -- 30.29 in1025.7 mb 0.00 in0.0 mm 0.00 in0.0 mm 0.00 in0.0 mm
10:06 PM 37.0°F2.8°C 40.0°F4.4°C 86% 0.4 mph W0.6 kmh W 0.4 mph0.6 kmh 30.29 in1025.7 mb 0.00 in0.0 mm 0.00 in0.0 mm 0.00 in0.0 mm
10:09 PM 37.0°F2.8°C 40.2°F4.6°C 87% Calm Calm -- 30.29 in1025.7 mb 0.00 in0.0 mm 0.00 in0.0 mm 0.00 in0.0 mm
10:12 PM 37.0°F2.8°C 40.2°F4.6°C 87% Calm Calm -- 30.29 in1025.7 mb 0.00 in0.0 mm 0.00 in0.0 mm 0.00 in0.0 mm
10:15 PM 37.0°F2.8°C 40.1°F4.5°C 87% Calm Calm -- 30.29 in1025.7 mb 0.00 in0.0 mm 0.00 in0.0 mm 0.00 in0.0 mm
10:18 PM 36.8°F2.7°C 40.3°F4.6°C 87% Calm Calm -- 30.29 in1025.7 mb 0.00 in0.0 mm 0.00 in0.0 mm 0.00 in0.0 mm
10:21 PM 37.0°F2.8°C 40.5°F4.7°C 87% Calm Calm -- 30.28 in1025.4 mb 0.00 in0.0 mm 0.00 in0.0 mm 0.00 in0.0 mm
10:24 PM 36.8°F2.7°C 40.2°F4.6°C 87% Calm Calm -- 30.28 in1025.4 mb 0.00 in0.0 mm 0.00 in0.0 mm 0.00 in0.0 mm
10:27 PM 37.0°F2.8°C 40.2°F4.6°C 87% Calm Calm -- 30.28 in1025.4 mb 0.00 in0.0 mm 0.00 in0.0 mm 0.00 in0.0 mm
10:30 PM 36.8°F2.7°C 40.1°F4.5°C 87% Calm Calm -- 30.28 in1025.4 mb 0.00 in0.0 mm 0.00 in0.0 mm 0.00 in0.0 mm
10:33 PM 36.8°F2.7°C 40.1°F4.5°C 87% Calm Calm -- 30.28 in1025.4 mb 0.00 in0.0 mm 0.00 in0.0 mm 0.00 in0.0 mm
10:36 PM 37.0°F2.8°C 39.9°F4.4°C 86% Calm Calm -- 30.28 in1025.4 mb 0.00 in0.0 mm 0.00 in0.0 mm 0.00 in0.0 mm
10:39 PM 37.0°F2.8°C 39.8°F4.3°C 86% Calm Calm -- 30.28 in1025.4 mb 0.00 in0.0 mm 0.00 in0.0 mm 0.00 in0.0 mm
10:42 PM 36.8°F2.7°C 40.0°F4.4°C 87% Calm Calm -- 30.28 in1025.4 mb 0.00 in0.0 mm 0.00 in0.0 mm 0.00 in0.0 mm
10:45 PM 36.8°F2.7°C 40.2°F4.6°C 87% Calm Calm -- 30.28 in1025.4 mb 0.00 in0.0 mm 0.00 in0.0 mm 0.00 in0.0 mm
10:48 PM 36.8°F2.7°C 40.1°F4.5°C 87% Calm Calm -- 30.28 in1025.4 mb 0.00 in0.0 mm 0.00 in0.0 mm 0.00 in0.0 mm
10:51 PM 36.8°F2.7°C 40.1°F4.5°C 87% Calm Calm -- 30.28 in1025.4 mb 0.00 in0.0 mm 0.00 in0.0 mm 0.00 in0.0 mm
10:54 PM 36.8°F2.7°C 39.8°F4.3°C 87% Calm Calm -- 30.28 in1025.4 mb 0.00 in0.0 mm 0.00 in0.0 mm 0.00 in0.0 mm
10:57 PM 36.8°F2.7°C 40.3°F4.6°C 87% 0.8 mph SW1.3 kmh SW 0.8 mph1.3 kmh 30.27 in1025.1 mb 0.00 in0.0 mm 0.00 in0.0 mm 0.00 in0.0 mm
11:00 PM 36.8°F2.7°C 40.0°F4.4°C 87% Calm Calm -- 30.27 in1025.1 mb 0.00 in0.0 mm 0.00 in0.0 mm 0.00 in0.0 mm
11:03 PM 36.8°F2.7°C 39.9°F4.4°C 87% Calm Calm -- 30.27 in1025.1 mb 0.00 in0.0 mm 0.00 in0.0 mm 0.00 in0.0 mm
11:06 PM 36.7°F2.6°C 39.9°F4.4°C 87% Calm Calm -- 30.27 in1025.1 mb 0.00 in0.0 mm 0.00 in0.0 mm 0.00 in0.0 mm
11:09 PM 36.7°F2.6°C 40.0°F4.4°C 87% Calm Calm -- 30.27 in1025.1 mb 0.00 in0.0 mm 0.00 in0.0 mm 0.00 in0.0 mm
11:12 PM 36.7°F2.6°C 40.0°F4.4°C 87% 2.0 mph W3.2 kmh W 2.0 mph3.2 kmh 30.27 in1025.1 mb 0.00 in0.0 mm 0.00 in0.0 mm 0.00 in0.0 mm
11:15 PM 36.7°F2.6°C 39.9°F4.4°C 87% 1.6 mph WNW2.6 kmh WNW 1.6 mph2.6 kmh 30.27 in1025.1 mb 0.00 in0.0 mm 0.00 in0.0 mm 0.00 in0.0 mm
11:18 PM 36.7°F2.6°C 40.2°F4.6°C 87% Calm Calm -- 30.27 in1025.1 mb 0.00 in0.0 mm 0.00 in0.0 mm 0.00 in0.0 mm
11:21 PM 36.7°F2.6°C 40.2°F4.6°C 87% Calm Calm -- 30.27 in1025.1 mb 0.00 in0.0 mm 0.00 in0.0 mm 0.00 in0.0 mm
11:24 PM 36.7°F2.6°C 40.2°F4.6°C 87% 1.2 mph W1.9 kmh W 1.2 mph1.9 kmh 30.27 in1025.1 mb 0.00 in0.0 mm 0.00 in0.0 mm 0.00 in0.0 mm
11:27 PM 36.7°F2.6°C 40.0°F4.4°C 87% Calm Calm -- 30.27 in1025.1 mb 0.00 in0.0 mm 0.00 in0.0 mm 0.00 in0.0 mm
11:33 PM 36.7°F2.6°C 39.9°F4.4°C 87% Calm Calm -- 30.27 in1025.1 mb 0.00 in0.0 mm 0.00 in0.0 mm 0.00 in0.0 mm
11:36 PM 36.7°F2.6°C 40.0°F4.4°C 87% Calm Calm -- 30.27 in1025.1 mb 0.00 in0.0 mm 0.00 in0.0 mm 0.00 in0.0 mm
11:39 PM 36.7°F2.6°C 39.9°F4.4°C 87% 1.6 mph W2.6 kmh W 1.6 mph2.6 kmh 30.27 in1025.1 mb 0.00 in0.0 mm 0.00 in0.0 mm 0.00 in0.0 mm
11:42 PM 36.7°F2.6°C 39.9°F4.4°C 87% 0.4 mph W0.6 kmh W 0.4 mph0.6 kmh 30.27 in1025.1 mb 0.00 in0.0 mm 0.00 in0.0 mm 0.00 in0.0 mm
11:45 PM 36.7°F2.6°C 40.0°F4.4°C 87% 2.0 mph W3.2 kmh W 2.0 mph3.2 kmh 30.27 in1025.1 mb 0.00 in0.0 mm 0.00 in0.0 mm 0.00 in0.0 mm
11:48 PM 36.7°F2.6°C 39.9°F4.4°C 87% 1.6 mph W2.6 kmh W 1.6 mph2.6 kmh 30.27 in1025.1 mb 0.00 in0.0 mm 0.00 in0.0 mm 0.00 in0.0 mm
11:51 PM 36.8°F2.7°C 39.8°F4.3°C 87% 1.6 mph W2.6 kmh W 1.6 mph2.6 kmh 30.27 in1025.1 mb 0.00 in0.0 mm 0.00 in0.0 mm 0.00 in0.0 mm
11:54 PM 36.8°F2.7°C 39.9°F4.4°C 87% 3.6 mph W5.8 kmh W 3.7 mph6.0 kmh 30.26 in1024.7 mb 0.00 in0.0 mm 0.00 in0.0 mm 0.00 in0.0 mm
11:57 PM 36.8°F2.7°C 40.0°F4.4°C 87% 3.2 mph NNW5.1 kmh NNW 3.2 mph5.1 kmh 30.26 in1024.7 mb 0.00 in0.0 mm 0.00 in0.0 mm 0.00 in0.0 mm